<?xml version="1.0" encoding="UTF-8" standalone="no" ?>
<gpx xmlns="http://www.topografix.com/GPX/1/1" xmlns:xsi="http://www.w3.org/2001/XMLSchema-instance" xsi:schemaLocation="http://www.topografix.com/GPX/1/1 http://www.topografix.com/GPX/1/1/gpx.xsd" version="1.1" creator="VisuGPX - https://www.visugpx.com">
  <metadata>
    <name>Randonnée col des Arrentès.</name>
    <desc><![CDATA[Départ du Col des Arrentès - Hermefosse- les Evelines- camping  la Sténiole- Pétempré -Herqueville - le Papet.]]></desc>
  </metadata>
  <trk>
    <name><![CDATA[2016-05-29 16:35:32]]></name>
    <trkseg>
      <trkpt lat="48.14828" lon="6.86435">
        <ele>685.62</ele>
        <time>2016-05-29T06:37:17Z</time>
      </trkpt>
      <trkpt lat="48.14825" lon="6.8645">
        <ele>684.6</ele>
        <time>2016-05-29T06:41:46Z</time>
      </trkpt>
      <trkpt lat="48.14829" lon="6.86439">
        <ele>685.07</ele>
        <time>2016-05-29T06:42:56Z</time>
      </trkpt>
      <trkpt lat="48.14821" lon="6.86448">
        <ele>684.51</ele>
        <time>2016-05-29T06:44:17Z</time>
      </trkpt>
      <trkpt lat="48.14831" lon="6.86467">
        <ele>683.9</ele>
        <time>2016-05-29T06:44:33Z</time>
      </trkpt>
      <trkpt lat="48.14822" lon="6.86455">
        <ele>685.27</ele>
        <time>2016-05-29T06:47:54Z</time>
      </trkpt>
      <trkpt lat="48.14831" lon="6.86439">
        <ele>685.75</ele>
        <time>2016-05-29T06:48:10Z</time>
      </trkpt>
      <trkpt lat="48.14846" lon="6.86426">
        <ele>685.87</ele>
        <time>2016-05-29T06:48:26Z</time>
      </trkpt>
      <trkpt lat="48.14861" lon="6.86408">
        <ele>687.25</ele>
        <time>2016-05-29T06:48:44Z</time>
      </trkpt>
      <trkpt lat="48.14873" lon="6.86386">
        <ele>688.53</ele>
        <time>2016-05-29T06:49:03Z</time>
      </trkpt>
      <trkpt lat="48.14879" lon="6.86355">
        <ele>689.16</ele>
        <time>2016-05-29T06:49:19Z</time>
      </trkpt>
      <trkpt lat="48.14878" lon="6.86326">
        <ele>689.92</ele>
        <time>2016-05-29T06:49:34Z</time>
      </trkpt>
      <trkpt lat="48.14881" lon="6.86299">
        <ele>690.63</ele>
        <time>2016-05-29T06:49:49Z</time>
      </trkpt>
      <trkpt lat="48.14886" lon="6.86271">
        <ele>691.27</ele>
        <time>2016-05-29T06:50:04Z</time>
      </trkpt>
      <trkpt lat="48.14891" lon="6.86246">
        <ele>692.45</ele>
        <time>2016-05-29T06:50:19Z</time>
      </trkpt>
      <trkpt lat="48.14893" lon="6.86218">
        <ele>692.84</ele>
        <time>2016-05-29T06:50:34Z</time>
      </trkpt>
      <trkpt lat="48.14892" lon="6.8619">
        <ele>694.14</ele>
        <time>2016-05-29T06:50:49Z</time>
      </trkpt>
      <trkpt lat="48.14891" lon="6.86162">
        <ele>695.35</ele>
        <time>2016-05-29T06:51:03Z</time>
      </trkpt>
      <trkpt lat="48.14893" lon="6.86134">
        <ele>696.27</ele>
        <time>2016-05-29T06:51:18Z</time>
      </trkpt>
      <trkpt lat="48.14897" lon="6.86109">
        <ele>697.73</ele>
        <time>2016-05-29T06:51:33Z</time>
      </trkpt>
      <trkpt lat="48.14904" lon="6.86086">
        <ele>699.25</ele>
        <time>2016-05-29T06:51:55Z</time>
      </trkpt>
      <trkpt lat="48.14908" lon="6.86059">
        <ele>699.58</ele>
        <time>2016-05-29T06:52:13Z</time>
      </trkpt>
      <trkpt lat="48.14904" lon="6.86032">
        <ele>699.67</ele>
        <time>2016-05-29T06:52:31Z</time>
      </trkpt>
      <trkpt lat="48.14894" lon="6.86009">
        <ele>701.02</ele>
        <time>2016-05-29T06:52:50Z</time>
      </trkpt>
      <trkpt lat="48.14886" lon="6.85986">
        <ele>700.71</ele>
        <time>2016-05-29T06:53:12Z</time>
      </trkpt>
      <trkpt lat="48.14878" lon="6.85961">
        <ele>701</ele>
        <time>2016-05-29T06:53:29Z</time>
      </trkpt>
      <trkpt lat="48.1487" lon="6.85938">
        <ele>699.71</ele>
        <time>2016-05-29T06:54:11Z</time>
      </trkpt>
      <trkpt lat="48.14864" lon="6.8593">
        <ele>701.02</ele>
        <time>2016-05-29T07:02:07Z</time>
      </trkpt>
      <trkpt lat="48.14874" lon="6.85953">
        <ele>701.55</ele>
        <time>2016-05-29T07:02:21Z</time>
      </trkpt>
      <trkpt lat="48.14884" lon="6.85977">
        <ele>702.11</ele>
        <time>2016-05-29T07:02:37Z</time>
      </trkpt>
      <trkpt lat="48.14892" lon="6.86001">
        <ele>702.77</ele>
        <time>2016-05-29T07:03:46Z</time>
      </trkpt>
      <trkpt lat="48.14891" lon="6.85997">
        <ele>702.47</ele>
        <time>2016-05-29T07:04:24Z</time>
      </trkpt>
      <trkpt lat="48.14882" lon="6.85972">
        <ele>702.29</ele>
        <time>2016-05-29T07:04:41Z</time>
      </trkpt>
      <trkpt lat="48.14876" lon="6.85945">
        <ele>702.14</ele>
        <time>2016-05-29T07:04:57Z</time>
      </trkpt>
      <trkpt lat="48.14866" lon="6.85922">
        <ele>701.92</ele>
        <time>2016-05-29T07:05:12Z</time>
      </trkpt>
      <trkpt lat="48.14854" lon="6.859">
        <ele>700.84</ele>
        <time>2016-05-29T07:05:29Z</time>
      </trkpt>
      <trkpt lat="48.14845" lon="6.85877">
        <ele>699.87</ele>
        <time>2016-05-29T07:05:45Z</time>
      </trkpt>
      <trkpt lat="48.14836" lon="6.85852">
        <ele>700.06</ele>
        <time>2016-05-29T07:06:01Z</time>
      </trkpt>
      <trkpt lat="48.14826" lon="6.85828">
        <ele>699.9</ele>
        <time>2016-05-29T07:06:14Z</time>
      </trkpt>
      <trkpt lat="48.14818" lon="6.85802">
        <ele>700.21</ele>
        <time>2016-05-29T07:06:27Z</time>
      </trkpt>
      <trkpt lat="48.1481" lon="6.85778">
        <ele>699.63</ele>
        <time>2016-05-29T07:06:42Z</time>
      </trkpt>
      <trkpt lat="48.14807" lon="6.85761">
        <ele>700.25</ele>
        <time>2016-05-29T07:07:58Z</time>
      </trkpt>
      <trkpt lat="48.14801" lon="6.85735">
        <ele>701.27</ele>
        <time>2016-05-29T07:08:15Z</time>
      </trkpt>
      <trkpt lat="48.14795" lon="6.85709">
        <ele>701.53</ele>
        <time>2016-05-29T07:08:32Z</time>
      </trkpt>
      <trkpt lat="48.14791" lon="6.85681">
        <ele>702.11</ele>
        <time>2016-05-29T07:08:48Z</time>
      </trkpt>
      <trkpt lat="48.14788" lon="6.85655">
        <ele>703.01</ele>
        <time>2016-05-29T07:09:20Z</time>
      </trkpt>
      <trkpt lat="48.14783" lon="6.8563">
        <ele>704.27</ele>
        <time>2016-05-29T07:09:37Z</time>
      </trkpt>
      <trkpt lat="48.14779" lon="6.85604">
        <ele>704.03</ele>
        <time>2016-05-29T07:09:54Z</time>
      </trkpt>
      <trkpt lat="48.1478" lon="6.85574">
        <ele>704.49</ele>
        <time>2016-05-29T07:10:13Z</time>
      </trkpt>
      <trkpt lat="48.14782" lon="6.85542">
        <ele>704.99</ele>
        <time>2016-05-29T07:10:40Z</time>
      </trkpt>
      <trkpt lat="48.14782" lon="6.8551">
        <ele>704.53</ele>
        <time>2016-05-29T07:11:01Z</time>
      </trkpt>
      <trkpt lat="48.1478" lon="6.85489">
        <ele>704.33</ele>
        <time>2016-05-29T07:12:27Z</time>
      </trkpt>
      <trkpt lat="48.14779" lon="6.8546">
        <ele>703.17</ele>
        <time>2016-05-29T07:12:41Z</time>
      </trkpt>
      <trkpt lat="48.14779" lon="6.85432">
        <ele>703.06</ele>
        <time>2016-05-29T07:12:56Z</time>
      </trkpt>
      <trkpt lat="48.14782" lon="6.85405">
        <ele>701.85</ele>
        <time>2016-05-29T07:13:11Z</time>
      </trkpt>
      <trkpt lat="48.1478" lon="6.85378">
        <ele>700.55</ele>
        <time>2016-05-29T07:13:26Z</time>
      </trkpt>
      <trkpt lat="48.14778" lon="6.85352">
        <ele>699.74</ele>
        <time>2016-05-29T07:13:43Z</time>
      </trkpt>
      <trkpt lat="48.1478" lon="6.85324">
        <ele>698.69</ele>
        <time>2016-05-29T07:13:58Z</time>
      </trkpt>
      <trkpt lat="48.1478" lon="6.85297">
        <ele>698.98</ele>
        <time>2016-05-29T07:14:13Z</time>
      </trkpt>
      <trkpt lat="48.1478" lon="6.85269">
        <ele>698.45</ele>
        <time>2016-05-29T07:14:28Z</time>
      </trkpt>
      <trkpt lat="48.14777" lon="6.8524">
        <ele>699.25</ele>
        <time>2016-05-29T07:14:44Z</time>
      </trkpt>
      <trkpt lat="48.14776" lon="6.85213">
        <ele>699.98</ele>
        <time>2016-05-29T07:15:00Z</time>
      </trkpt>
      <trkpt lat="48.14774" lon="6.85185">
        <ele>701.99</ele>
        <time>2016-05-29T07:15:18Z</time>
      </trkpt>
      <trkpt lat="48.14773" lon="6.85156">
        <ele>702.72</ele>
        <time>2016-05-29T07:15:35Z</time>
      </trkpt>
      <trkpt lat="48.14776" lon="6.85132">
        <ele>703.94</ele>
        <time>2016-05-29T07:15:53Z</time>
      </trkpt>
      <trkpt lat="48.14789" lon="6.85115">
        <ele>706.66</ele>
        <time>2016-05-29T07:16:12Z</time>
      </trkpt>
      <trkpt lat="48.14791" lon="6.85114">
        <ele>706.31</ele>
        <time>2016-05-29T07:16:39Z</time>
      </trkpt>
      <trkpt lat="48.14782" lon="6.85093">
        <ele>706.15</ele>
        <time>2016-05-29T07:17:24Z</time>
      </trkpt>
      <trkpt lat="48.14781" lon="6.85068">
        <ele>704.86</ele>
        <time>2016-05-29T07:17:48Z</time>
      </trkpt>
      <trkpt lat="48.14776" lon="6.85039">
        <ele>702.65</ele>
        <time>2016-05-29T07:18:13Z</time>
      </trkpt>
      <trkpt lat="48.14781" lon="6.85019">
        <ele>701.9</ele>
        <time>2016-05-29T07:18:30Z</time>
      </trkpt>
      <trkpt lat="48.14787" lon="6.84996">
        <ele>702.83</ele>
        <time>2016-05-29T07:18:56Z</time>
      </trkpt>
      <trkpt lat="48.14797" lon="6.84976">
        <ele>705.13</ele>
        <time>2016-05-29T07:19:17Z</time>
      </trkpt>
      <trkpt lat="48.14811" lon="6.84956">
        <ele>705.33</ele>
        <time>2016-05-29T07:19:49Z</time>
      </trkpt>
      <trkpt lat="48.14823" lon="6.84923">
        <ele>703.5</ele>
        <time>2016-05-29T07:20:14Z</time>
      </trkpt>
      <trkpt lat="48.14829" lon="6.84886">
        <ele>700.68</ele>
        <time>2016-05-29T07:20:38Z</time>
      </trkpt>
      <trkpt lat="48.14825" lon="6.84848">
        <ele>698.47</ele>
        <time>2016-05-29T07:20:56Z</time>
      </trkpt>
      <trkpt lat="48.14821" lon="6.84816">
        <ele>694.93</ele>
        <time>2016-05-29T07:21:15Z</time>
      </trkpt>
      <trkpt lat="48.1482" lon="6.84781">
        <ele>693.2</ele>
        <time>2016-05-29T07:21:31Z</time>
      </trkpt>
      <trkpt lat="48.14809" lon="6.84745">
        <ele>692.76</ele>
        <time>2016-05-29T07:21:48Z</time>
      </trkpt>
      <trkpt lat="48.14802" lon="6.84728">
        <ele>692.03</ele>
        <time>2016-05-29T07:22:04Z</time>
      </trkpt>
      <trkpt lat="48.14808" lon="6.84706">
        <ele>695.23</ele>
        <time>2016-05-29T07:22:21Z</time>
      </trkpt>
      <trkpt lat="48.14814" lon="6.84679">
        <ele>696.39</ele>
        <time>2016-05-29T07:22:38Z</time>
      </trkpt>
      <trkpt lat="48.14819" lon="6.84653">
        <ele>697.68</ele>
        <time>2016-05-29T07:22:54Z</time>
      </trkpt>
      <trkpt lat="48.14825" lon="6.84631">
        <ele>698.46</ele>
        <time>2016-05-29T07:23:10Z</time>
      </trkpt>
      <trkpt lat="48.14838" lon="6.84612">
        <ele>699.29</ele>
        <time>2016-05-29T07:23:26Z</time>
      </trkpt>
      <trkpt lat="48.1485" lon="6.84591">
        <ele>700.21</ele>
        <time>2016-05-29T07:23:41Z</time>
      </trkpt>
      <trkpt lat="48.14857" lon="6.84583">
        <ele>700.7</ele>
        <time>2016-05-29T07:24:21Z</time>
      </trkpt>
      <trkpt lat="48.1485" lon="6.84589">
        <ele>700.64</ele>
        <time>2016-05-29T07:25:57Z</time>
      </trkpt>
      <trkpt lat="48.14844" lon="6.84563">
        <ele>700.82</ele>
        <time>2016-05-29T07:26:16Z</time>
      </trkpt>
      <trkpt lat="48.14838" lon="6.84536">
        <ele>701.74</ele>
        <time>2016-05-29T07:26:32Z</time>
      </trkpt>
      <trkpt lat="48.14835" lon="6.84508">
        <ele>702.23</ele>
        <time>2016-05-29T07:26:48Z</time>
      </trkpt>
      <trkpt lat="48.14834" lon="6.8448">
        <ele>702.64</ele>
        <time>2016-05-29T07:27:03Z</time>
      </trkpt>
      <trkpt lat="48.14835" lon="6.84452">
        <ele>703.28</ele>
        <time>2016-05-29T07:27:18Z</time>
      </trkpt>
      <trkpt lat="48.1484" lon="6.84426">
        <ele>703.96</ele>
        <time>2016-05-29T07:27:33Z</time>
      </trkpt>
      <trkpt lat="48.14854" lon="6.84412">
        <ele>706.45</ele>
        <time>2016-05-29T07:27:51Z</time>
      </trkpt>
      <trkpt lat="48.1487" lon="6.84394">
        <ele>709.33</ele>
        <time>2016-05-29T07:28:14Z</time>
      </trkpt>
      <trkpt lat="48.14871" lon="6.84362">
        <ele>712.25</ele>
        <time>2016-05-29T07:28:35Z</time>
      </trkpt>
      <trkpt lat="48.14871" lon="6.84331">
        <ele>714.62</ele>
        <time>2016-05-29T07:28:52Z</time>
      </trkpt>
      <trkpt lat="48.14865" lon="6.84301">
        <ele>714.75</ele>
        <time>2016-05-29T07:29:09Z</time>
      </trkpt>
      <trkpt lat="48.14864" lon="6.84269">
        <ele>715.85</ele>
        <time>2016-05-29T07:29:25Z</time>
      </trkpt>
      <trkpt lat="48.14861" lon="6.84239">
        <ele>716.48</ele>
        <time>2016-05-29T07:29:41Z</time>
      </trkpt>
      <trkpt lat="48.14853" lon="6.84204">
        <ele>716.56</ele>
        <time>2016-05-29T07:29:59Z</time>
      </trkpt>
      <trkpt lat="48.1485" lon="6.84176">
        <ele>716.28</ele>
        <time>2016-05-29T07:30:15Z</time>
      </trkpt>
      <trkpt lat="48.14843" lon="6.84145">
        <ele>715.85</ele>
        <time>2016-05-29T07:30:31Z</time>
      </trkpt>
      <trkpt lat="48.14835" lon="6.84118">
        <ele>717.34</ele>
        <time>2016-05-29T07:30:46Z</time>
      </trkpt>
      <trkpt lat="48.14829" lon="6.84086">
        <ele>718.77</ele>
        <time>2016-05-29T07:31:01Z</time>
      </trkpt>
      <trkpt lat="48.14826" lon="6.84057">
        <ele>720.04</ele>
        <time>2016-05-29T07:31:18Z</time>
      </trkpt>
      <trkpt lat="48.14819" lon="6.84025">
        <ele>720.02</ele>
        <time>2016-05-29T07:31:35Z</time>
      </trkpt>
      <trkpt lat="48.1481" lon="6.83994">
        <ele>721.4</ele>
        <time>2016-05-29T07:31:51Z</time>
      </trkpt>
      <trkpt lat="48.14809" lon="6.83963">
        <ele>719.69</ele>
        <time>2016-05-29T07:32:06Z</time>
      </trkpt>
      <trkpt lat="48.14803" lon="6.83931">
        <ele>718.91</ele>
        <time>2016-05-29T07:32:23Z</time>
      </trkpt>
      <trkpt lat="48.14795" lon="6.83897">
        <ele>718.77</ele>
        <time>2016-05-29T07:32:42Z</time>
      </trkpt>
      <trkpt lat="48.14791" lon="6.83863">
        <ele>718.43</ele>
        <time>2016-05-29T07:33:01Z</time>
      </trkpt>
      <trkpt lat="48.14791" lon="6.83834">
        <ele>718.33</ele>
        <time>2016-05-29T07:33:18Z</time>
      </trkpt>
      <trkpt lat="48.14783" lon="6.83808">
        <ele>717.81</ele>
        <time>2016-05-29T07:33:42Z</time>
      </trkpt>
      <trkpt lat="48.14784" lon="6.83773">
        <ele>717.95</ele>
        <time>2016-05-29T07:34:02Z</time>
      </trkpt>
      <trkpt lat="48.1478" lon="6.83741">
        <ele>717.15</ele>
        <time>2016-05-29T07:34:26Z</time>
      </trkpt>
      <trkpt lat="48.14783" lon="6.83707">
        <ele>716.78</ele>
        <time>2016-05-29T07:34:43Z</time>
      </trkpt>
      <trkpt lat="48.14778" lon="6.83675">
        <ele>716.05</ele>
        <time>2016-05-29T07:35:03Z</time>
      </trkpt>
      <trkpt lat="48.14774" lon="6.83642">
        <ele>716.23</ele>
        <time>2016-05-29T07:35:21Z</time>
      </trkpt>
      <trkpt lat="48.14773" lon="6.83612">
        <ele>715.5</ele>
        <time>2016-05-29T07:35:38Z</time>
      </trkpt>
      <trkpt lat="48.14772" lon="6.83578">
        <ele>715.59</ele>
        <time>2016-05-29T07:35:55Z</time>
      </trkpt>
      <trkpt lat="48.14767" lon="6.83547">
        <ele>716.25</ele>
        <time>2016-05-29T07:36:24Z</time>
      </trkpt>
      <trkpt lat="48.1477" lon="6.83518">
        <ele>714.37</ele>
        <time>2016-05-29T07:36:44Z</time>
      </trkpt>
      <trkpt lat="48.1477" lon="6.8348">
        <ele>714.99</ele>
        <time>2016-05-29T07:37:07Z</time>
      </trkpt>
      <trkpt lat="48.14776" lon="6.83441">
        <ele>714.22</ele>
        <time>2016-05-29T07:37:27Z</time>
      </trkpt>
      <trkpt lat="48.14775" lon="6.83406">
        <ele>713.57</ele>
        <time>2016-05-29T07:37:50Z</time>
      </trkpt>
      <trkpt lat="48.14776" lon="6.83375">
        <ele>713.66</ele>
        <time>2016-05-29T07:38:11Z</time>
      </trkpt>
      <trkpt lat="48.14782" lon="6.8334">
        <ele>712.94</ele>
        <time>2016-05-29T07:38:31Z</time>
      </trkpt>
      <trkpt lat="48.14784" lon="6.83311">
        <ele>715.57</ele>
        <time>2016-05-29T07:38:58Z</time>
      </trkpt>
      <trkpt lat="48.14787" lon="6.83293">
        <ele>716.17</ele>
        <time>2016-05-29T07:39:54Z</time>
      </trkpt>
      <trkpt lat="48.14795" lon="6.83264">
        <ele>717.04</ele>
        <time>2016-05-29T07:40:17Z</time>
      </trkpt>
      <trkpt lat="48.14796" lon="6.83224">
        <ele>717.29</ele>
        <time>2016-05-29T07:40:37Z</time>
      </trkpt>
      <trkpt lat="48.14797" lon="6.8318">
        <ele>717.39</ele>
        <time>2016-05-29T07:40:58Z</time>
      </trkpt>
      <trkpt lat="48.14805" lon="6.83147">
        <ele>718.75</ele>
        <time>2016-05-29T07:41:15Z</time>
      </trkpt>
      <trkpt lat="48.14814" lon="6.8311">
        <ele>720.35</ele>
        <time>2016-05-29T07:41:34Z</time>
      </trkpt>
      <trkpt lat="48.14826" lon="6.83083">
        <ele>720.22</ele>
        <time>2016-05-29T07:41:49Z</time>
      </trkpt>
      <trkpt lat="48.14834" lon="6.83057">
        <ele>720.69</ele>
        <time>2016-05-29T07:42:03Z</time>
      </trkpt>
      <trkpt lat="48.14842" lon="6.83031">
        <ele>719.5</ele>
        <time>2016-05-29T07:42:18Z</time>
      </trkpt>
      <trkpt lat="48.14854" lon="6.83004">
        <ele>718.32</ele>
        <time>2016-05-29T07:42:32Z</time>
      </trkpt>
      <trkpt lat="48.14864" lon="6.82976">
        <ele>717.95</ele>
        <time>2016-05-29T07:42:47Z</time>
      </trkpt>
      <trkpt lat="48.14868" lon="6.82946">
        <ele>718.42</ele>
        <time>2016-05-29T07:43:02Z</time>
      </trkpt>
      <trkpt lat="48.14874" lon="6.8292">
        <ele>718.74</ele>
        <time>2016-05-29T07:43:16Z</time>
      </trkpt>
      <trkpt lat="48.14881" lon="6.82897">
        <ele>718.66</ele>
        <time>2016-05-29T07:43:32Z</time>
      </trkpt>
      <trkpt lat="48.14893" lon="6.82869">
        <ele>718.82</ele>
        <time>2016-05-29T07:43:53Z</time>
      </trkpt>
      <trkpt lat="48.14914" lon="6.82838">
        <ele>717.04</ele>
        <time>2016-05-29T07:44:14Z</time>
      </trkpt>
      <trkpt lat="48.14929" lon="6.82823">
        <ele>715.89</ele>
        <time>2016-05-29T07:44:37Z</time>
      </trkpt>
      <trkpt lat="48.1495" lon="6.82819">
        <ele>716.02</ele>
        <time>2016-05-29T07:44:56Z</time>
      </trkpt>
      <trkpt lat="48.14975" lon="6.82818">
        <ele>717.12</ele>
        <time>2016-05-29T07:45:13Z</time>
      </trkpt>
      <trkpt lat="48.14999" lon="6.82814">
        <ele>716.74</ele>
        <time>2016-05-29T07:45:31Z</time>
      </trkpt>
      <trkpt lat="48.15027" lon="6.82815">
        <ele>716.92</ele>
        <time>2016-05-29T07:45:48Z</time>
      </trkpt>
      <trkpt lat="48.15047" lon="6.82818">
        <ele>716.91</ele>
        <time>2016-05-29T07:46:03Z</time>
      </trkpt>
      <trkpt lat="48.15068" lon="6.82815">
        <ele>715.96</ele>
        <time>2016-05-29T07:46:20Z</time>
      </trkpt>
      <trkpt lat="48.1509" lon="6.82816">
        <ele>715.72</ele>
        <time>2016-05-29T07:46:35Z</time>
      </trkpt>
      <trkpt lat="48.15109" lon="6.82813">
        <ele>714.87</ele>
        <time>2016-05-29T07:46:50Z</time>
      </trkpt>
      <trkpt lat="48.1513" lon="6.82805">
        <ele>714.48</ele>
        <time>2016-05-29T07:47:06Z</time>
      </trkpt>
      <trkpt lat="48.15147" lon="6.82792">
        <ele>713.6</ele>
        <time>2016-05-29T07:47:22Z</time>
      </trkpt>
      <trkpt lat="48.15163" lon="6.82788">
        <ele>712.97</ele>
        <time>2016-05-29T07:47:43Z</time>
      </trkpt>
      <trkpt lat="48.15162" lon="6.82781">
        <ele>713.59</ele>
        <time>2016-05-29T07:48:40Z</time>
      </trkpt>
      <trkpt lat="48.15156" lon="6.82778">
        <ele>711.99</ele>
        <time>2016-05-29T07:50:49Z</time>
      </trkpt>
      <trkpt lat="48.15157" lon="6.82782">
        <ele>712.83</ele>
        <time>2016-05-29T07:52:20Z</time>
      </trkpt>
      <trkpt lat="48.1516" lon="6.82786">
        <ele>712.51</ele>
        <time>2016-05-29T07:55:13Z</time>
      </trkpt>
      <trkpt lat="48.1516" lon="6.82782">
        <ele>712.12</ele>
        <time>2016-05-29T07:57:28Z</time>
      </trkpt>
      <trkpt lat="48.15171" lon="6.82775">
        <ele>711.12</ele>
        <time>2016-05-29T07:58:48Z</time>
      </trkpt>
      <trkpt lat="48.15186" lon="6.82755">
        <ele>711.24</ele>
        <time>2016-05-29T07:59:08Z</time>
      </trkpt>
      <trkpt lat="48.15194" lon="6.82724">
        <ele>711.16</ele>
        <time>2016-05-29T07:59:23Z</time>
      </trkpt>
      <trkpt lat="48.152" lon="6.82697">
        <ele>710.88</ele>
        <time>2016-05-29T07:59:56Z</time>
      </trkpt>
      <trkpt lat="48.15204" lon="6.82669">
        <ele>710.06</ele>
        <time>2016-05-29T08:00:11Z</time>
      </trkpt>
      <trkpt lat="48.15207" lon="6.82642">
        <ele>709.14</ele>
        <time>2016-05-29T08:00:26Z</time>
      </trkpt>
      <trkpt lat="48.15204" lon="6.82619">
        <ele>708.85</ele>
        <time>2016-05-29T08:00:48Z</time>
      </trkpt>
      <trkpt lat="48.15208" lon="6.82589">
        <ele>708.13</ele>
        <time>2016-05-29T08:01:03Z</time>
      </trkpt>
      <trkpt lat="48.1521" lon="6.8256">
        <ele>708.14</ele>
        <time>2016-05-29T08:01:18Z</time>
      </trkpt>
      <trkpt lat="48.15213" lon="6.82532">
        <ele>708.2</ele>
        <time>2016-05-29T08:01:32Z</time>
      </trkpt>
      <trkpt lat="48.15218" lon="6.82504">
        <ele>707.67</ele>
        <time>2016-05-29T08:01:47Z</time>
      </trkpt>
      <trkpt lat="48.15223" lon="6.82476">
        <ele>707.58</ele>
        <time>2016-05-29T08:02:03Z</time>
      </trkpt>
      <trkpt lat="48.15228" lon="6.82449">
        <ele>707.64</ele>
        <time>2016-05-29T08:02:19Z</time>
      </trkpt>
      <trkpt lat="48.15233" lon="6.82422">
        <ele>708</ele>
        <time>2016-05-29T08:02:35Z</time>
      </trkpt>
      <trkpt lat="48.15242" lon="6.82395">
        <ele>708.85</ele>
        <time>2016-05-29T08:02:51Z</time>
      </trkpt>
      <trkpt lat="48.15248" lon="6.82369">
        <ele>709.37</ele>
        <time>2016-05-29T08:03:07Z</time>
      </trkpt>
      <trkpt lat="48.15252" lon="6.82345">
        <ele>709.66</ele>
        <time>2016-05-29T08:03:22Z</time>
      </trkpt>
      <trkpt lat="48.15264" lon="6.82323">
        <ele>710.2</ele>
        <time>2016-05-29T08:03:38Z</time>
      </trkpt>
      <trkpt lat="48.15277" lon="6.82303">
        <ele>710.7</ele>
        <time>2016-05-29T08:03:53Z</time>
      </trkpt>
      <trkpt lat="48.1529" lon="6.82284">
        <ele>711.17</ele>
        <time>2016-05-29T08:04:08Z</time>
      </trkpt>
      <trkpt lat="48.15303" lon="6.82263">
        <ele>712.49</ele>
        <time>2016-05-29T08:04:24Z</time>
      </trkpt>
      <trkpt lat="48.15314" lon="6.82241">
        <ele>713.36</ele>
        <time>2016-05-29T08:04:40Z</time>
      </trkpt>
      <trkpt lat="48.15324" lon="6.82216">
        <ele>714.42</ele>
        <time>2016-05-29T08:04:56Z</time>
      </trkpt>
      <trkpt lat="48.15333" lon="6.82193">
        <ele>714.72</ele>
        <time>2016-05-29T08:05:11Z</time>
      </trkpt>
      <trkpt lat="48.15343" lon="6.8217">
        <ele>714.73</ele>
        <time>2016-05-29T08:05:26Z</time>
      </trkpt>
      <trkpt lat="48.15352" lon="6.82146">
        <ele>715.07</ele>
        <time>2016-05-29T08:05:41Z</time>
      </trkpt>
      <trkpt lat="48.15362" lon="6.82123">
        <ele>715.1</ele>
        <time>2016-05-29T08:05:56Z</time>
      </trkpt>
      <trkpt lat="48.15372" lon="6.82098">
        <ele>715.03</ele>
        <time>2016-05-29T08:06:11Z</time>
      </trkpt>
      <trkpt lat="48.15383" lon="6.82075">
        <ele>715.08</ele>
        <time>2016-05-29T08:06:26Z</time>
      </trkpt>
      <trkpt lat="48.15395" lon="6.82053">
        <ele>714.88</ele>
        <time>2016-05-29T08:06:41Z</time>
      </trkpt>
      <trkpt lat="48.15407" lon="6.82032">
        <ele>715.17</ele>
        <time>2016-05-29T08:06:56Z</time>
      </trkpt>
      <trkpt lat="48.1542" lon="6.82014">
        <ele>715.58</ele>
        <time>2016-05-29T08:07:18Z</time>
      </trkpt>
      <trkpt lat="48.1543" lon="6.81996">
        <ele>716.32</ele>
        <time>2016-05-29T08:07:56Z</time>
      </trkpt>
      <trkpt lat="48.15434" lon="6.81978">
        <ele>716.66</ele>
        <time>2016-05-29T08:08:43Z</time>
      </trkpt>
      <trkpt lat="48.15431" lon="6.8195">
        <ele>718.55</ele>
        <time>2016-05-29T08:08:59Z</time>
      </trkpt>
      <trkpt lat="48.15423" lon="6.81928">
        <ele>718.6</ele>
        <time>2016-05-29T08:09:17Z</time>
      </trkpt>
      <trkpt lat="48.15414" lon="6.81906">
        <ele>719.32</ele>
        <time>2016-05-29T08:09:32Z</time>
      </trkpt>
      <trkpt lat="48.15399" lon="6.81886">
        <ele>719.68</ele>
        <time>2016-05-29T08:09:48Z</time>
      </trkpt>
      <trkpt lat="48.15385" lon="6.81866">
        <ele>719.79</ele>
        <time>2016-05-29T08:10:02Z</time>
      </trkpt>
      <trkpt lat="48.15374" lon="6.81844">
        <ele>720.93</ele>
        <time>2016-05-29T08:10:15Z</time>
      </trkpt>
      <trkpt lat="48.15368" lon="6.81816">
        <ele>720.99</ele>
        <time>2016-05-29T08:10:29Z</time>
      </trkpt>
      <trkpt lat="48.15365" lon="6.81788">
        <ele>720.47</ele>
        <time>2016-05-29T08:10:43Z</time>
      </trkpt>
      <trkpt lat="48.15363" lon="6.81761">
        <ele>720.77</ele>
        <time>2016-05-29T08:10:56Z</time>
      </trkpt>
      <trkpt lat="48.15363" lon="6.81733">
        <ele>721.33</ele>
        <time>2016-05-29T08:11:10Z</time>
      </trkpt>
      <trkpt lat="48.15363" lon="6.81705">
        <ele>721.42</ele>
        <time>2016-05-29T08:11:23Z</time>
      </trkpt>
      <trkpt lat="48.15365" lon="6.81678">
        <ele>721.02</ele>
        <time>2016-05-29T08:11:37Z</time>
      </trkpt>
      <trkpt lat="48.15368" lon="6.81651">
        <ele>721.39</ele>
        <time>2016-05-29T08:11:52Z</time>
      </trkpt>
      <trkpt lat="48.15374" lon="6.81627">
        <ele>721.16</ele>
        <time>2016-05-29T08:12:08Z</time>
      </trkpt>
      <trkpt lat="48.15383" lon="6.81598">
        <ele>721.86</ele>
        <time>2016-05-29T08:12:25Z</time>
      </trkpt>
      <trkpt lat="48.15391" lon="6.81563">
        <ele>722.26</ele>
        <time>2016-05-29T08:12:39Z</time>
      </trkpt>
      <trkpt lat="48.15391" lon="6.81533">
        <ele>722.26</ele>
        <time>2016-05-29T08:12:53Z</time>
      </trkpt>
      <trkpt lat="48.15391" lon="6.81503">
        <ele>722.04</ele>
        <time>2016-05-29T08:13:07Z</time>
      </trkpt>
      <trkpt lat="48.15388" lon="6.81477">
        <ele>721.73</ele>
        <time>2016-05-29T08:13:20Z</time>
      </trkpt>
      <trkpt lat="48.15381" lon="6.81449">
        <ele>722.18</ele>
        <time>2016-05-29T08:13:34Z</time>
      </trkpt>
      <trkpt lat="48.15371" lon="6.81424">
        <ele>722.01</ele>
        <time>2016-05-29T08:13:48Z</time>
      </trkpt>
      <trkpt lat="48.1536" lon="6.81401">
        <ele>722.44</ele>
        <time>2016-05-29T08:14:01Z</time>
      </trkpt>
      <trkpt lat="48.15347" lon="6.81381">
        <ele>722.67</ele>
        <time>2016-05-29T08:14:15Z</time>
      </trkpt>
      <trkpt lat="48.15333" lon="6.81361">
        <ele>722.05</ele>
        <time>2016-05-29T08:14:29Z</time>
      </trkpt>
      <trkpt lat="48.15319" lon="6.81345">
        <ele>722.19</ele>
        <time>2016-05-29T08:14:51Z</time>
      </trkpt>
      <trkpt lat="48.15305" lon="6.81327">
        <ele>722.31</ele>
        <time>2016-05-29T08:15:04Z</time>
      </trkpt>
      <trkpt lat="48.15291" lon="6.81309">
        <ele>722.14</ele>
        <time>2016-05-29T08:15:17Z</time>
      </trkpt>
      <trkpt lat="48.15278" lon="6.81289">
        <ele>721.21</ele>
        <time>2016-05-29T08:15:31Z</time>
      </trkpt>
      <trkpt lat="48.15262" lon="6.8127">
        <ele>720.54</ele>
        <time>2016-05-29T08:15:45Z</time>
      </trkpt>
      <trkpt lat="48.15246" lon="6.81251">
        <ele>719.97</ele>
        <time>2016-05-29T08:15:59Z</time>
      </trkpt>
      <trkpt lat="48.15232" lon="6.81232">
        <ele>720.34</ele>
        <time>2016-05-29T08:16:13Z</time>
      </trkpt>
      <trkpt lat="48.1522" lon="6.81212">
        <ele>719.13</ele>
        <time>2016-05-29T08:16:27Z</time>
      </trkpt>
      <trkpt lat="48.15214" lon="6.81202">
        <ele>719.15</ele>
        <time>2016-05-29T08:17:39Z</time>
      </trkpt>
      <trkpt lat="48.15199" lon="6.81193">
        <ele>720.54</ele>
        <time>2016-05-29T08:18:47Z</time>
      </trkpt>
      <trkpt lat="48.15191" lon="6.81168">
        <ele>719.85</ele>
        <time>2016-05-29T08:19:07Z</time>
      </trkpt>
      <trkpt lat="48.15185" lon="6.81142">
        <ele>719.92</ele>
        <time>2016-05-29T08:19:26Z</time>
      </trkpt>
      <trkpt lat="48.15174" lon="6.81115">
        <ele>719.41</ele>
        <time>2016-05-29T08:19:42Z</time>
      </trkpt>
      <trkpt lat="48.15164" lon="6.81085">
        <ele>719.06</ele>
        <time>2016-05-29T08:20:02Z</time>
      </trkpt>
      <trkpt lat="48.15156" lon="6.81052">
        <ele>718.43</ele>
        <time>2016-05-29T08:20:26Z</time>
      </trkpt>
      <trkpt lat="48.15145" lon="6.81021">
        <ele>718.09</ele>
        <time>2016-05-29T08:20:45Z</time>
      </trkpt>
      <trkpt lat="48.15131" lon="6.80995">
        <ele>716.77</ele>
        <time>2016-05-29T08:21:03Z</time>
      </trkpt>
      <trkpt lat="48.15117" lon="6.80966">
        <ele>715.34</ele>
        <time>2016-05-29T08:21:20Z</time>
      </trkpt>
      <trkpt lat="48.15106" lon="6.8094">
        <ele>713.33</ele>
        <time>2016-05-29T08:21:39Z</time>
      </trkpt>
      <trkpt lat="48.15093" lon="6.80913">
        <ele>711.18</ele>
        <time>2016-05-29T08:22:03Z</time>
      </trkpt>
      <trkpt lat="48.1507" lon="6.80911">
        <ele>708.19</ele>
        <time>2016-05-29T08:22:27Z</time>
      </trkpt>
      <trkpt lat="48.15048" lon="6.80898">
        <ele>704.75</ele>
        <time>2016-05-29T08:22:50Z</time>
      </trkpt>
      <trkpt lat="48.15025" lon="6.80891">
        <ele>703.03</ele>
        <time>2016-05-29T08:23:15Z</time>
      </trkpt>
      <trkpt lat="48.15001" lon="6.80879">
        <ele>699.16</ele>
        <time>2016-05-29T08:23:37Z</time>
      </trkpt>
      <trkpt lat="48.14976" lon="6.80873">
        <ele>694.85</ele>
        <time>2016-05-29T08:24:08Z</time>
      </trkpt>
      <trkpt lat="48.14945" lon="6.8087">
        <ele>692.2</ele>
        <time>2016-05-29T08:24:31Z</time>
      </trkpt>
      <trkpt lat="48.14922" lon="6.80879">
        <ele>689.13</ele>
        <time>2016-05-29T08:24:52Z</time>
      </trkpt>
      <trkpt lat="48.149" lon="6.80896">
        <ele>684.54</ele>
        <time>2016-05-29T08:25:24Z</time>
      </trkpt>
      <trkpt lat="48.14872" lon="6.80914">
        <ele>681.12</ele>
        <time>2016-05-29T08:25:49Z</time>
      </trkpt>
      <trkpt lat="48.14853" lon="6.80928">
        <ele>678.38</ele>
        <time>2016-05-29T08:26:13Z</time>
      </trkpt>
      <trkpt lat="48.14823" lon="6.80952">
        <ele>674.96</ele>
        <time>2016-05-29T08:26:38Z</time>
      </trkpt>
      <trkpt lat="48.14801" lon="6.80975">
        <ele>673.3</ele>
        <time>2016-05-29T08:26:57Z</time>
      </trkpt>
      <trkpt lat="48.14792" lon="6.80997">
        <ele>672.28</ele>
        <time>2016-05-29T08:27:15Z</time>
      </trkpt>
      <trkpt lat="48.14782" lon="6.81024">
        <ele>670.74</ele>
        <time>2016-05-29T08:27:33Z</time>
      </trkpt>
      <trkpt lat="48.14769" lon="6.81052">
        <ele>668.7</ele>
        <time>2016-05-29T08:27:53Z</time>
      </trkpt>
      <trkpt lat="48.14752" lon="6.81083">
        <ele>666.27</ele>
        <time>2016-05-29T08:28:12Z</time>
      </trkpt>
      <trkpt lat="48.14734" lon="6.8111">
        <ele>663.63</ele>
        <time>2016-05-29T08:28:33Z</time>
      </trkpt>
      <trkpt lat="48.14722" lon="6.81149">
        <ele>661.03</ele>
        <time>2016-05-29T08:28:53Z</time>
      </trkpt>
      <trkpt lat="48.14709" lon="6.81185">
        <ele>657.81</ele>
        <time>2016-05-29T08:29:13Z</time>
      </trkpt>
      <trkpt lat="48.14702" lon="6.81203">
        <ele>655.36</ele>
        <time>2016-05-29T08:29:30Z</time>
      </trkpt>
      <trkpt lat="48.14701" lon="6.81223">
        <ele>654.23</ele>
        <time>2016-05-29T08:29:56Z</time>
      </trkpt>
      <trkpt lat="48.14685" lon="6.8122">
        <ele>652.65</ele>
        <time>2016-05-29T08:32:28Z</time>
      </trkpt>
      <trkpt lat="48.14675" lon="6.81202">
        <ele>648.65</ele>
        <time>2016-05-29T08:32:50Z</time>
      </trkpt>
      <trkpt lat="48.14662" lon="6.8118">
        <ele>645.64</ele>
        <time>2016-05-29T08:33:30Z</time>
      </trkpt>
      <trkpt lat="48.14656" lon="6.81156">
        <ele>643.11</ele>
        <time>2016-05-29T08:33:48Z</time>
      </trkpt>
      <trkpt lat="48.14647" lon="6.8113">
        <ele>640.38</ele>
        <time>2016-05-29T08:34:05Z</time>
      </trkpt>
      <trkpt lat="48.1464" lon="6.81104">
        <ele>638.27</ele>
        <time>2016-05-29T08:34:22Z</time>
      </trkpt>
      <trkpt lat="48.14631" lon="6.81078">
        <ele>635.26</ele>
        <time>2016-05-29T08:34:42Z</time>
      </trkpt>
      <trkpt lat="48.14622" lon="6.81049">
        <ele>631.94</ele>
        <time>2016-05-29T08:35:05Z</time>
      </trkpt>
      <trkpt lat="48.14618" lon="6.81017">
        <ele>628.04</ele>
        <time>2016-05-29T08:35:26Z</time>
      </trkpt>
      <trkpt lat="48.14618" lon="6.80983">
        <ele>624.1</ele>
        <time>2016-05-29T08:35:47Z</time>
      </trkpt>
      <trkpt lat="48.14611" lon="6.80944">
        <ele>619.9</ele>
        <time>2016-05-29T08:36:13Z</time>
      </trkpt>
      <trkpt lat="48.14613" lon="6.80895">
        <ele>614.57</ele>
        <time>2016-05-29T08:36:39Z</time>
      </trkpt>
      <trkpt lat="48.14617" lon="6.80854">
        <ele>612.75</ele>
        <time>2016-05-29T08:36:54Z</time>
      </trkpt>
      <trkpt lat="48.14624" lon="6.80827">
        <ele>610.11</ele>
        <time>2016-05-29T08:37:07Z</time>
      </trkpt>
      <trkpt lat="48.14628" lon="6.80792">
        <ele>608.67</ele>
        <time>2016-05-29T08:37:23Z</time>
      </trkpt>
      <trkpt lat="48.14635" lon="6.80757">
        <ele>607.28</ele>
        <time>2016-05-29T08:37:35Z</time>
      </trkpt>
      <trkpt lat="48.1464" lon="6.80728">
        <ele>606.95</ele>
        <time>2016-05-29T08:37:49Z</time>
      </trkpt>
      <trkpt lat="48.14638" lon="6.80695">
        <ele>605.45</ele>
        <time>2016-05-29T08:38:06Z</time>
      </trkpt>
      <trkpt lat="48.14641" lon="6.80662">
        <ele>604.09</ele>
        <time>2016-05-29T08:38:24Z</time>
      </trkpt>
      <trkpt lat="48.14638" lon="6.80637">
        <ele>603.45</ele>
        <time>2016-05-29T08:38:53Z</time>
      </trkpt>
      <trkpt lat="48.14645" lon="6.80606">
        <ele>602.32</ele>
        <time>2016-05-29T08:39:13Z</time>
      </trkpt>
      <trkpt lat="48.14636" lon="6.80595">
        <ele>600.17</ele>
        <time>2016-05-29T08:39:31Z</time>
      </trkpt>
      <trkpt lat="48.14623" lon="6.80605">
        <ele>599.3</ele>
        <time>2016-05-29T08:39:44Z</time>
      </trkpt>
      <trkpt lat="48.14613" lon="6.80625">
        <ele>597.78</ele>
        <time>2016-05-29T08:39:59Z</time>
      </trkpt>
      <trkpt lat="48.14596" lon="6.80659">
        <ele>597.21</ele>
        <time>2016-05-29T08:40:14Z</time>
      </trkpt>
      <trkpt lat="48.1458" lon="6.80678">
        <ele>596.16</ele>
        <time>2016-05-29T08:40:28Z</time>
      </trkpt>
      <trkpt lat="48.14567" lon="6.80701">
        <ele>596.04</ele>
        <time>2016-05-29T08:40:43Z</time>
      </trkpt>
      <trkpt lat="48.14562" lon="6.8073">
        <ele>595.2</ele>
        <time>2016-05-29T08:40:57Z</time>
      </trkpt>
      <trkpt lat="48.14554" lon="6.80763">
        <ele>594.09</ele>
        <time>2016-05-29T08:41:12Z</time>
      </trkpt>
      <trkpt lat="48.14546" lon="6.80792">
        <ele>591.92</ele>
        <time>2016-05-29T08:41:28Z</time>
      </trkpt>
      <trkpt lat="48.14538" lon="6.80815">
        <ele>590.3</ele>
        <time>2016-05-29T08:41:51Z</time>
      </trkpt>
      <trkpt lat="48.14536" lon="6.80827">
        <ele>589.97</ele>
        <time>2016-05-29T08:42:35Z</time>
      </trkpt>
      <trkpt lat="48.14523" lon="6.80846">
        <ele>589.44</ele>
        <time>2016-05-29T08:42:54Z</time>
      </trkpt>
      <trkpt lat="48.14511" lon="6.80866">
        <ele>588.54</ele>
        <time>2016-05-29T08:43:08Z</time>
      </trkpt>
      <trkpt lat="48.14501" lon="6.80888">
        <ele>587.22</ele>
        <time>2016-05-29T08:43:26Z</time>
      </trkpt>
      <trkpt lat="48.14488" lon="6.8091">
        <ele>586.63</ele>
        <time>2016-05-29T08:43:42Z</time>
      </trkpt>
      <trkpt lat="48.14476" lon="6.80931">
        <ele>586.2</ele>
        <time>2016-05-29T08:43:56Z</time>
      </trkpt>
      <trkpt lat="48.14463" lon="6.80955">
        <ele>585.87</ele>
        <time>2016-05-29T08:44:16Z</time>
      </trkpt>
      <trkpt lat="48.14448" lon="6.80982">
        <ele>583.85</ele>
        <time>2016-05-29T08:44:34Z</time>
      </trkpt>
      <trkpt lat="48.14433" lon="6.81008">
        <ele>582.76</ele>
        <time>2016-05-29T08:44:48Z</time>
      </trkpt>
      <trkpt lat="48.14419" lon="6.81032">
        <ele>581.78</ele>
        <time>2016-05-29T08:45:01Z</time>
      </trkpt>
      <trkpt lat="48.14411" lon="6.81059">
        <ele>581.96</ele>
        <time>2016-05-29T08:45:14Z</time>
      </trkpt>
      <trkpt lat="48.14403" lon="6.81088">
        <ele>581.98</ele>
        <time>2016-05-29T08:45:28Z</time>
      </trkpt>
      <trkpt lat="48.14394" lon="6.8112">
        <ele>585.42</ele>
        <time>2016-05-29T08:45:47Z</time>
      </trkpt>
      <trkpt lat="48.14382" lon="6.81155">
        <ele>586.98</ele>
        <time>2016-05-29T08:46:03Z</time>
      </trkpt>
      <trkpt lat="48.14371" lon="6.81184">
        <ele>587.42</ele>
        <time>2016-05-29T08:46:16Z</time>
      </trkpt>
      <trkpt lat="48.14358" lon="6.81208">
        <ele>585.29</ele>
        <time>2016-05-29T08:46:29Z</time>
      </trkpt>
      <trkpt lat="48.14344" lon="6.81227">
        <ele>584.87</ele>
        <time>2016-05-29T08:46:42Z</time>
      </trkpt>
      <trkpt lat="48.14336" lon="6.81247">
        <ele>583.21</ele>
        <time>2016-05-29T08:47:13Z</time>
      </trkpt>
      <trkpt lat="48.14319" lon="6.81259">
        <ele>581.81</ele>
        <time>2016-05-29T08:47:29Z</time>
      </trkpt>
      <trkpt lat="48.143" lon="6.81273">
        <ele>581.07</ele>
        <time>2016-05-29T08:47:46Z</time>
      </trkpt>
      <trkpt lat="48.14273" lon="6.81288">
        <ele>579.28</ele>
        <time>2016-05-29T08:48:02Z</time>
      </trkpt>
      <trkpt lat="48.14268" lon="6.81306">
        <ele>579.71</ele>
        <time>2016-05-29T08:49:12Z</time>
      </trkpt>
      <trkpt lat="48.14261" lon="6.81326">
        <ele>579.37</ele>
        <time>2016-05-29T08:50:00Z</time>
      </trkpt>
      <trkpt lat="48.1425" lon="6.81351">
        <ele>578.21</ele>
        <time>2016-05-29T08:50:23Z</time>
      </trkpt>
      <trkpt lat="48.14239" lon="6.81374">
        <ele>577.51</ele>
        <time>2016-05-29T08:50:42Z</time>
      </trkpt>
      <trkpt lat="48.1423" lon="6.81399">
        <ele>576.09</ele>
        <time>2016-05-29T08:50:59Z</time>
      </trkpt>
      <trkpt lat="48.14222" lon="6.81426">
        <ele>574.44</ele>
        <time>2016-05-29T08:51:16Z</time>
      </trkpt>
      <trkpt lat="48.14214" lon="6.81452">
        <ele>572.64</ele>
        <time>2016-05-29T08:51:32Z</time>
      </trkpt>
      <trkpt lat="48.14208" lon="6.81481">
        <ele>570.68</ele>
        <time>2016-05-29T08:51:50Z</time>
      </trkpt>
      <trkpt lat="48.14197" lon="6.81503">
        <ele>569.05</ele>
        <time>2016-05-29T08:52:06Z</time>
      </trkpt>
      <trkpt lat="48.14181" lon="6.81522">
        <ele>567.22</ele>
        <time>2016-05-29T08:52:23Z</time>
      </trkpt>
      <trkpt lat="48.14166" lon="6.81549">
        <ele>566.31</ele>
        <time>2016-05-29T08:52:40Z</time>
      </trkpt>
      <trkpt lat="48.14158" lon="6.81582">
        <ele>566.32</ele>
        <time>2016-05-29T08:52:56Z</time>
      </trkpt>
      <trkpt lat="48.14158" lon="6.81611">
        <ele>566.81</ele>
        <time>2016-05-29T08:53:12Z</time>
      </trkpt>
      <trkpt lat="48.14151" lon="6.81639">
        <ele>566.78</ele>
        <time>2016-05-29T08:53:28Z</time>
      </trkpt>
      <trkpt lat="48.14144" lon="6.81666">
        <ele>566.89</ele>
        <time>2016-05-29T08:53:43Z</time>
      </trkpt>
      <trkpt lat="48.14135" lon="6.81689">
        <ele>567.1</ele>
        <time>2016-05-29T08:54:01Z</time>
      </trkpt>
      <trkpt lat="48.14132" lon="6.81718">
        <ele>567.59</ele>
        <time>2016-05-29T08:54:16Z</time>
      </trkpt>
      <trkpt lat="48.14129" lon="6.81745">
        <ele>568.34</ele>
        <time>2016-05-29T08:54:30Z</time>
      </trkpt>
      <trkpt lat="48.14125" lon="6.81771">
        <ele>568.34</ele>
        <time>2016-05-29T08:54:44Z</time>
      </trkpt>
      <trkpt lat="48.14121" lon="6.81798">
        <ele>569.43</ele>
        <time>2016-05-29T08:54:58Z</time>
      </trkpt>
      <trkpt lat="48.14116" lon="6.81825">
        <ele>569.34</ele>
        <time>2016-05-29T08:55:12Z</time>
      </trkpt>
      <trkpt lat="48.14111" lon="6.81854">
        <ele>570.14</ele>
        <time>2016-05-29T08:55:26Z</time>
      </trkpt>
      <trkpt lat="48.141" lon="6.81876">
        <ele>569.64</ele>
        <time>2016-05-29T08:55:44Z</time>
      </trkpt>
      <trkpt lat="48.1409" lon="6.81899">
        <ele>566.62</ele>
        <time>2016-05-29T08:56:00Z</time>
      </trkpt>
      <trkpt lat="48.1408" lon="6.81923">
        <ele>564.04</ele>
        <time>2016-05-29T08:56:16Z</time>
      </trkpt>
      <trkpt lat="48.14073" lon="6.81951">
        <ele>564.09</ele>
        <time>2016-05-29T08:56:30Z</time>
      </trkpt>
      <trkpt lat="48.14066" lon="6.81978">
        <ele>563.69</ele>
        <time>2016-05-29T08:56:44Z</time>
      </trkpt>
      <trkpt lat="48.14057" lon="6.82001">
        <ele>562.81</ele>
        <time>2016-05-29T08:56:57Z</time>
      </trkpt>
      <trkpt lat="48.14042" lon="6.82004">
        <ele>560.63</ele>
        <time>2016-05-29T08:57:12Z</time>
      </trkpt>
      <trkpt lat="48.14023" lon="6.81992">
        <ele>558.14</ele>
        <time>2016-05-29T08:57:28Z</time>
      </trkpt>
      <trkpt lat="48.14007" lon="6.81992">
        <ele>556.54</ele>
        <time>2016-05-29T08:57:42Z</time>
      </trkpt>
      <trkpt lat="48.1399" lon="6.81981">
        <ele>555</ele>
        <time>2016-05-29T08:57:56Z</time>
      </trkpt>
      <trkpt lat="48.13973" lon="6.81973">
        <ele>553.73</ele>
        <time>2016-05-29T08:58:22Z</time>
      </trkpt>
      <trkpt lat="48.13953" lon="6.81981">
        <ele>554.22</ele>
        <time>2016-05-29T08:59:22Z</time>
      </trkpt>
      <trkpt lat="48.13934" lon="6.81994">
        <ele>554.57</ele>
        <time>2016-05-29T08:59:40Z</time>
      </trkpt>
      <trkpt lat="48.13913" lon="6.82011">
        <ele>553.8</ele>
        <time>2016-05-29T08:59:58Z</time>
      </trkpt>
      <trkpt lat="48.13892" lon="6.82026">
        <ele>554.94</ele>
        <time>2016-05-29T09:00:16Z</time>
      </trkpt>
      <trkpt lat="48.13874" lon="6.82046">
        <ele>555.64</ele>
        <time>2016-05-29T09:00:33Z</time>
      </trkpt>
      <trkpt lat="48.1385" lon="6.82061">
        <ele>560</ele>
        <time>2016-05-29T09:00:56Z</time>
      </trkpt>
      <trkpt lat="48.13825" lon="6.82063">
        <ele>563.49</ele>
        <time>2016-05-29T09:01:16Z</time>
      </trkpt>
      <trkpt lat="48.138" lon="6.82079">
        <ele>565.36</ele>
        <time>2016-05-29T09:01:34Z</time>
      </trkpt>
      <trkpt lat="48.13782" lon="6.82087">
        <ele>564.68</ele>
        <time>2016-05-29T09:02:09Z</time>
      </trkpt>
      <trkpt lat="48.13765" lon="6.82082">
        <ele>562.57</ele>
        <time>2016-05-29T09:02:50Z</time>
      </trkpt>
      <trkpt lat="48.13753" lon="6.82057">
        <ele>558.12</ele>
        <time>2016-05-29T09:03:13Z</time>
      </trkpt>
      <trkpt lat="48.13743" lon="6.82023">
        <ele>553.31</ele>
        <time>2016-05-29T09:03:32Z</time>
      </trkpt>
      <trkpt lat="48.13734" lon="6.81998">
        <ele>552.48</ele>
        <time>2016-05-29T09:03:47Z</time>
      </trkpt>
      <trkpt lat="48.13724" lon="6.81968">
        <ele>552.08</ele>
        <time>2016-05-29T09:04:01Z</time>
      </trkpt>
      <trkpt lat="48.1372" lon="6.8194">
        <ele>551.85</ele>
        <time>2016-05-29T09:04:14Z</time>
      </trkpt>
      <trkpt lat="48.1372" lon="6.81908">
        <ele>552.22</ele>
        <time>2016-05-29T09:04:31Z</time>
      </trkpt>
      <trkpt lat="48.13727" lon="6.81885">
        <ele>552.18</ele>
        <time>2016-05-29T09:04:44Z</time>
      </trkpt>
      <trkpt lat="48.13741" lon="6.81867">
        <ele>551.49</ele>
        <time>2016-05-29T09:04:59Z</time>
      </trkpt>
      <trkpt lat="48.13754" lon="6.81847">
        <ele>551.24</ele>
        <time>2016-05-29T09:05:14Z</time>
      </trkpt>
      <trkpt lat="48.13764" lon="6.81824">
        <ele>550.35</ele>
        <time>2016-05-29T09:05:28Z</time>
      </trkpt>
      <trkpt lat="48.13774" lon="6.818">
        <ele>550.33</ele>
        <time>2016-05-29T09:05:43Z</time>
      </trkpt>
      <trkpt lat="48.13785" lon="6.81778">
        <ele>549.32</ele>
        <time>2016-05-29T09:05:59Z</time>
      </trkpt>
      <trkpt lat="48.13801" lon="6.8176">
        <ele>549.21</ele>
        <time>2016-05-29T09:06:16Z</time>
      </trkpt>
      <trkpt lat="48.1382" lon="6.81741">
        <ele>548.75</ele>
        <time>2016-05-29T09:06:35Z</time>
      </trkpt>
      <trkpt lat="48.13837" lon="6.81716">
        <ele>548.66</ele>
        <time>2016-05-29T09:06:51Z</time>
      </trkpt>
      <trkpt lat="48.13853" lon="6.81693">
        <ele>548.73</ele>
        <time>2016-05-29T09:07:06Z</time>
      </trkpt>
      <trkpt lat="48.13867" lon="6.8167">
        <ele>548.56</ele>
        <time>2016-05-29T09:07:21Z</time>
      </trkpt>
      <trkpt lat="48.13862" lon="6.81654">
        <ele>549.18</ele>
        <time>2016-05-29T09:07:46Z</time>
      </trkpt>
      <trkpt lat="48.13854" lon="6.81638">
        <ele>546.82</ele>
        <time>2016-05-29T09:10:51Z</time>
      </trkpt>
      <trkpt lat="48.13856" lon="6.81613">
        <ele>546.64</ele>
        <time>2016-05-29T09:11:07Z</time>
      </trkpt>
      <trkpt lat="48.13861" lon="6.81588">
        <ele>546.51</ele>
        <time>2016-05-29T09:11:23Z</time>
      </trkpt>
      <trkpt lat="48.13865" lon="6.81561">
        <ele>546.02</ele>
        <time>2016-05-29T09:11:38Z</time>
      </trkpt>
      <trkpt lat="48.13867" lon="6.81531">
        <ele>545.25</ele>
        <time>2016-05-29T09:11:51Z</time>
      </trkpt>
      <trkpt lat="48.13868" lon="6.81503">
        <ele>545.06</ele>
        <time>2016-05-29T09:12:04Z</time>
      </trkpt>
      <trkpt lat="48.13873" lon="6.81477">
        <ele>544.45</ele>
        <time>2016-05-29T09:12:20Z</time>
      </trkpt>
      <trkpt lat="48.13877" lon="6.81448">
        <ele>544.84</ele>
        <time>2016-05-29T09:12:37Z</time>
      </trkpt>
      <trkpt lat="48.13882" lon="6.81422">
        <ele>544.66</ele>
        <time>2016-05-29T09:12:52Z</time>
      </trkpt>
      <trkpt lat="48.13888" lon="6.81395">
        <ele>544.18</ele>
        <time>2016-05-29T09:13:06Z</time>
      </trkpt>
      <trkpt lat="48.13894" lon="6.8137">
        <ele>544.6</ele>
        <time>2016-05-29T09:13:20Z</time>
      </trkpt>
      <trkpt lat="48.13901" lon="6.81344">
        <ele>543.81</ele>
        <time>2016-05-29T09:13:34Z</time>
      </trkpt>
      <trkpt lat="48.13913" lon="6.81322">
        <ele>543.76</ele>
        <time>2016-05-29T09:13:49Z</time>
      </trkpt>
      <trkpt lat="48.13925" lon="6.81299">
        <ele>543.31</ele>
        <time>2016-05-29T09:14:04Z</time>
      </trkpt>
      <trkpt lat="48.1393" lon="6.81274">
        <ele>542.51</ele>
        <time>2016-05-29T09:14:18Z</time>
      </trkpt>
      <trkpt lat="48.13934" lon="6.81246">
        <ele>542.48</ele>
        <time>2016-05-29T09:14:32Z</time>
      </trkpt>
      <trkpt lat="48.13943" lon="6.81221">
        <ele>541.15</ele>
        <time>2016-05-29T09:14:46Z</time>
      </trkpt>
      <trkpt lat="48.1395" lon="6.81203">
        <ele>541.39</ele>
        <time>2016-05-29T09:15:04Z</time>
      </trkpt>
      <trkpt lat="48.13932" lon="6.81198">
        <ele>540.72</ele>
        <time>2016-05-29T09:15:29Z</time>
      </trkpt>
      <trkpt lat="48.13914" lon="6.81185">
        <ele>541.57</ele>
        <time>2016-05-29T09:15:44Z</time>
      </trkpt>
      <trkpt lat="48.13897" lon="6.81175">
        <ele>541.26</ele>
        <time>2016-05-29T09:15:58Z</time>
      </trkpt>
      <trkpt lat="48.13878" lon="6.81172">
        <ele>541.34</ele>
        <time>2016-05-29T09:16:12Z</time>
      </trkpt>
      <trkpt lat="48.13859" lon="6.81172">
        <ele>541.69</ele>
        <time>2016-05-29T09:16:26Z</time>
      </trkpt>
      <trkpt lat="48.13841" lon="6.81177">
        <ele>541.62</ele>
        <time>2016-05-29T09:16:40Z</time>
      </trkpt>
      <trkpt lat="48.13823" lon="6.81187">
        <ele>541.96</ele>
        <time>2016-05-29T09:16:54Z</time>
      </trkpt>
      <trkpt lat="48.13805" lon="6.81196">
        <ele>542.56</ele>
        <time>2016-05-29T09:17:11Z</time>
      </trkpt>
      <trkpt lat="48.13787" lon="6.81204">
        <ele>543.56</ele>
        <time>2016-05-29T09:17:25Z</time>
      </trkpt>
      <trkpt lat="48.13772" lon="6.81208">
        <ele>544.14</ele>
        <time>2016-05-29T09:18:07Z</time>
      </trkpt>
      <trkpt lat="48.13768" lon="6.81205">
        <ele>543.84</ele>
        <time>2016-05-29T09:19:13Z</time>
      </trkpt>
      <trkpt lat="48.1375" lon="6.81213">
        <ele>545.54</ele>
        <time>2016-05-29T09:19:39Z</time>
      </trkpt>
      <trkpt lat="48.13742" lon="6.81195">
        <ele>552.16</ele>
        <time>2016-05-29T09:20:02Z</time>
      </trkpt>
      <trkpt lat="48.13745" lon="6.81166">
        <ele>558.09</ele>
        <time>2016-05-29T09:20:27Z</time>
      </trkpt>
      <trkpt lat="48.13737" lon="6.81139">
        <ele>561.4</ele>
        <time>2016-05-29T09:20:52Z</time>
      </trkpt>
      <trkpt lat="48.13734" lon="6.81117">
        <ele>562.65</ele>
        <time>2016-05-29T09:21:21Z</time>
      </trkpt>
      <trkpt lat="48.13721" lon="6.81121">
        <ele>560.78</ele>
        <time>2016-05-29T09:22:06Z</time>
      </trkpt>
      <trkpt lat="48.13708" lon="6.81107">
        <ele>558.37</ele>
        <time>2016-05-29T09:23:37Z</time>
      </trkpt>
      <trkpt lat="48.13695" lon="6.81084">
        <ele>557.13</ele>
        <time>2016-05-29T09:23:54Z</time>
      </trkpt>
      <trkpt lat="48.13675" lon="6.81059">
        <ele>556.16</ele>
        <time>2016-05-29T09:24:08Z</time>
      </trkpt>
      <trkpt lat="48.13655" lon="6.81044">
        <ele>556.06</ele>
        <time>2016-05-29T09:24:22Z</time>
      </trkpt>
      <trkpt lat="48.13637" lon="6.81037">
        <ele>556.09</ele>
        <time>2016-05-29T09:24:39Z</time>
      </trkpt>
      <trkpt lat="48.1362" lon="6.81029">
        <ele>556.28</ele>
        <time>2016-05-29T09:24:59Z</time>
      </trkpt>
      <trkpt lat="48.13602" lon="6.81024">
        <ele>557.44</ele>
        <time>2016-05-29T09:25:13Z</time>
      </trkpt>
      <trkpt lat="48.13591" lon="6.81042">
        <ele>557.39</ele>
        <time>2016-05-29T09:25:28Z</time>
      </trkpt>
      <trkpt lat="48.1358" lon="6.81063">
        <ele>557.15</ele>
        <time>2016-05-29T09:25:42Z</time>
      </trkpt>
      <trkpt lat="48.13571" lon="6.81087">
        <ele>557.71</ele>
        <time>2016-05-29T09:25:56Z</time>
      </trkpt>
      <trkpt lat="48.13559" lon="6.81105">
        <ele>558.6</ele>
        <time>2016-05-29T09:26:11Z</time>
      </trkpt>
      <trkpt lat="48.13545" lon="6.81104">
        <ele>558.73</ele>
        <time>2016-05-29T09:26:31Z</time>
      </trkpt>
      <trkpt lat="48.1353" lon="6.81093">
        <ele>559.68</ele>
        <time>2016-05-29T09:26:44Z</time>
      </trkpt>
      <trkpt lat="48.13513" lon="6.81086">
        <ele>560</ele>
        <time>2016-05-29T09:27:05Z</time>
      </trkpt>
      <trkpt lat="48.13497" lon="6.81099">
        <ele>560.49</ele>
        <time>2016-05-29T09:27:20Z</time>
      </trkpt>
      <trkpt lat="48.13482" lon="6.81115">
        <ele>561.85</ele>
        <time>2016-05-29T09:27:35Z</time>
      </trkpt>
      <trkpt lat="48.13464" lon="6.81129">
        <ele>563.22</ele>
        <time>2016-05-29T09:27:55Z</time>
      </trkpt>
      <trkpt lat="48.13447" lon="6.81152">
        <ele>564.33</ele>
        <time>2016-05-29T09:28:12Z</time>
      </trkpt>
      <trkpt lat="48.13432" lon="6.81186">
        <ele>564.72</ele>
        <time>2016-05-29T09:28:31Z</time>
      </trkpt>
      <trkpt lat="48.1342" lon="6.81214">
        <ele>565.72</ele>
        <time>2016-05-29T09:28:49Z</time>
      </trkpt>
      <trkpt lat="48.13404" lon="6.81245">
        <ele>569.27</ele>
        <time>2016-05-29T09:29:09Z</time>
      </trkpt>
      <trkpt lat="48.13384" lon="6.81263">
        <ele>573.15</ele>
        <time>2016-05-29T09:29:31Z</time>
      </trkpt>
      <trkpt lat="48.13372" lon="6.81276">
        <ele>574.98</ele>
        <time>2016-05-29T09:30:14Z</time>
      </trkpt>
      <trkpt lat="48.13378" lon="6.81271">
        <ele>574.16</ele>
        <time>2016-05-29T09:31:21Z</time>
      </trkpt>
      <trkpt lat="48.13374" lon="6.81263">
        <ele>574.06</ele>
        <time>2016-05-29T09:32:40Z</time>
      </trkpt>
      <trkpt lat="48.13371" lon="6.81268">
        <ele>574.77</ele>
        <time>2016-05-29T09:33:53Z</time>
      </trkpt>
      <trkpt lat="48.13353" lon="6.81288">
        <ele>575.35</ele>
        <time>2016-05-29T09:34:16Z</time>
      </trkpt>
      <trkpt lat="48.13336" lon="6.8131">
        <ele>575.9</ele>
        <time>2016-05-29T09:34:37Z</time>
      </trkpt>
      <trkpt lat="48.13318" lon="6.81337">
        <ele>578.41</ele>
        <time>2016-05-29T09:34:58Z</time>
      </trkpt>
      <trkpt lat="48.13302" lon="6.81372">
        <ele>581.45</ele>
        <time>2016-05-29T09:35:22Z</time>
      </trkpt>
      <trkpt lat="48.13282" lon="6.81394">
        <ele>584.16</ele>
        <time>2016-05-29T09:35:48Z</time>
      </trkpt>
      <trkpt lat="48.13262" lon="6.81411">
        <ele>586.17</ele>
        <time>2016-05-29T09:36:10Z</time>
      </trkpt>
      <trkpt lat="48.13239" lon="6.8142">
        <ele>588.82</ele>
        <time>2016-05-29T09:36:30Z</time>
      </trkpt>
      <trkpt lat="48.13217" lon="6.81428">
        <ele>592.35</ele>
        <time>2016-05-29T09:36:50Z</time>
      </trkpt>
      <trkpt lat="48.13194" lon="6.8144">
        <ele>596.08</ele>
        <time>2016-05-29T09:37:12Z</time>
      </trkpt>
      <trkpt lat="48.1317" lon="6.81453">
        <ele>598.88</ele>
        <time>2016-05-29T09:37:34Z</time>
      </trkpt>
      <trkpt lat="48.13175" lon="6.81464">
        <ele>602.9</ele>
        <time>2016-05-29T09:37:59Z</time>
      </trkpt>
      <trkpt lat="48.13185" lon="6.81442">
        <ele>605.78</ele>
        <time>2016-05-29T09:38:19Z</time>
      </trkpt>
      <trkpt lat="48.13192" lon="6.81414">
        <ele>609.79</ele>
        <time>2016-05-29T09:38:42Z</time>
      </trkpt>
      <trkpt lat="48.13201" lon="6.81382">
        <ele>615.7</ele>
        <time>2016-05-29T09:39:13Z</time>
      </trkpt>
      <trkpt lat="48.13188" lon="6.81355">
        <ele>621.73</ele>
        <time>2016-05-29T09:39:47Z</time>
      </trkpt>
      <trkpt lat="48.1316" lon="6.81347">
        <ele>625.87</ele>
        <time>2016-05-29T09:40:19Z</time>
      </trkpt>
      <trkpt lat="48.13129" lon="6.8136">
        <ele>630.85</ele>
        <time>2016-05-29T09:40:49Z</time>
      </trkpt>
      <trkpt lat="48.13106" lon="6.81379">
        <ele>635.59</ele>
        <time>2016-05-29T09:41:20Z</time>
      </trkpt>
      <trkpt lat="48.13077" lon="6.81395">
        <ele>640.4</ele>
        <time>2016-05-29T09:41:49Z</time>
      </trkpt>
      <trkpt lat="48.13045" lon="6.8141">
        <ele>645.96</ele>
        <time>2016-05-29T09:42:16Z</time>
      </trkpt>
      <trkpt lat="48.13019" lon="6.81425">
        <ele>650.57</ele>
        <time>2016-05-29T09:42:46Z</time>
      </trkpt>
      <trkpt lat="48.12996" lon="6.81431">
        <ele>655.36</ele>
        <time>2016-05-29T09:43:14Z</time>
      </trkpt>
      <trkpt lat="48.12971" lon="6.81436">
        <ele>660.53</ele>
        <time>2016-05-29T09:43:42Z</time>
      </trkpt>
      <trkpt lat="48.12956" lon="6.81448">
        <ele>660.4</ele>
        <time>2016-05-29T09:44:20Z</time>
      </trkpt>
      <trkpt lat="48.12953" lon="6.81453">
        <ele>660.73</ele>
        <time>2016-05-29T09:45:21Z</time>
      </trkpt>
      <trkpt lat="48.12955" lon="6.81464">
        <ele>660.71</ele>
        <time>2016-05-29T09:46:05Z</time>
      </trkpt>
      <trkpt lat="48.12951" lon="6.8145">
        <ele>660.52</ele>
        <time>2016-05-29T09:47:36Z</time>
      </trkpt>
      <trkpt lat="48.12952" lon="6.81443">
        <ele>660.72</ele>
        <time>2016-05-29T09:48:50Z</time>
      </trkpt>
      <trkpt lat="48.12938" lon="6.81453">
        <ele>664.07</ele>
        <time>2016-05-29T09:49:28Z</time>
      </trkpt>
      <trkpt lat="48.12913" lon="6.81469">
        <ele>667.89</ele>
        <time>2016-05-29T09:49:54Z</time>
      </trkpt>
      <trkpt lat="48.12891" lon="6.81484">
        <ele>670.33</ele>
        <time>2016-05-29T09:50:15Z</time>
      </trkpt>
      <trkpt lat="48.1287" lon="6.81502">
        <ele>674.68</ele>
        <time>2016-05-29T09:50:46Z</time>
      </trkpt>
      <trkpt lat="48.12841" lon="6.81515">
        <ele>677.11</ele>
        <time>2016-05-29T09:51:12Z</time>
      </trkpt>
      <trkpt lat="48.12812" lon="6.8153">
        <ele>677.49</ele>
        <time>2016-05-29T09:51:29Z</time>
      </trkpt>
      <trkpt lat="48.12787" lon="6.81546">
        <ele>677.37</ele>
        <time>2016-05-29T09:51:47Z</time>
      </trkpt>
      <trkpt lat="48.12772" lon="6.81565">
        <ele>678.06</ele>
        <time>2016-05-29T09:52:06Z</time>
      </trkpt>
      <trkpt lat="48.12752" lon="6.81581">
        <ele>678.41</ele>
        <time>2016-05-29T09:52:23Z</time>
      </trkpt>
      <trkpt lat="48.12734" lon="6.81589">
        <ele>679.03</ele>
        <time>2016-05-29T09:52:38Z</time>
      </trkpt>
      <trkpt lat="48.12712" lon="6.81594">
        <ele>680.69</ele>
        <time>2016-05-29T09:52:53Z</time>
      </trkpt>
      <trkpt lat="48.12694" lon="6.81607">
        <ele>682.81</ele>
        <time>2016-05-29T09:53:11Z</time>
      </trkpt>
      <trkpt lat="48.12675" lon="6.81631">
        <ele>684.19</ele>
        <time>2016-05-29T09:53:30Z</time>
      </trkpt>
      <trkpt lat="48.12657" lon="6.81656">
        <ele>685.17</ele>
        <time>2016-05-29T09:53:47Z</time>
      </trkpt>
      <trkpt lat="48.12644" lon="6.81678">
        <ele>687.4</ele>
        <time>2016-05-29T09:54:06Z</time>
      </trkpt>
      <trkpt lat="48.12627" lon="6.81707">
        <ele>688.66</ele>
        <time>2016-05-29T09:54:23Z</time>
      </trkpt>
      <trkpt lat="48.12619" lon="6.81741">
        <ele>688.93</ele>
        <time>2016-05-29T09:54:53Z</time>
      </trkpt>
      <trkpt lat="48.12615" lon="6.81756">
        <ele>689.75</ele>
        <time>2016-05-29T09:56:04Z</time>
      </trkpt>
      <trkpt lat="48.12598" lon="6.81762">
        <ele>690.5</ele>
        <time>2016-05-29T09:56:22Z</time>
      </trkpt>
      <trkpt lat="48.12583" lon="6.81782">
        <ele>691.01</ele>
        <time>2016-05-29T09:56:38Z</time>
      </trkpt>
      <trkpt lat="48.12572" lon="6.81805">
        <ele>691.08</ele>
        <time>2016-05-29T09:56:54Z</time>
      </trkpt>
      <trkpt lat="48.1256" lon="6.8183">
        <ele>692.8</ele>
        <time>2016-05-29T09:57:10Z</time>
      </trkpt>
      <trkpt lat="48.12549" lon="6.81854">
        <ele>693.3</ele>
        <time>2016-05-29T09:57:25Z</time>
      </trkpt>
      <trkpt lat="48.12536" lon="6.81874">
        <ele>694.66</ele>
        <time>2016-05-29T09:57:40Z</time>
      </trkpt>
      <trkpt lat="48.12523" lon="6.81894">
        <ele>695.5</ele>
        <time>2016-05-29T09:57:55Z</time>
      </trkpt>
      <trkpt lat="48.12509" lon="6.81911">
        <ele>695.6</ele>
        <time>2016-05-29T09:58:10Z</time>
      </trkpt>
      <trkpt lat="48.12494" lon="6.81926">
        <ele>695.93</ele>
        <time>2016-05-29T09:58:25Z</time>
      </trkpt>
      <trkpt lat="48.12478" lon="6.81939">
        <ele>695.95</ele>
        <time>2016-05-29T09:58:41Z</time>
      </trkpt>
      <trkpt lat="48.12462" lon="6.81955">
        <ele>695.99</ele>
        <time>2016-05-29T09:58:56Z</time>
      </trkpt>
      <trkpt lat="48.12446" lon="6.81969">
        <ele>696.06</ele>
        <time>2016-05-29T09:59:10Z</time>
      </trkpt>
      <trkpt lat="48.12431" lon="6.81977">
        <ele>696.75</ele>
        <time>2016-05-29T09:59:26Z</time>
      </trkpt>
      <trkpt lat="48.12411" lon="6.81986">
        <ele>696.58</ele>
        <time>2016-05-29T09:59:47Z</time>
      </trkpt>
      <trkpt lat="48.12389" lon="6.82002">
        <ele>697.34</ele>
        <time>2016-05-29T10:00:07Z</time>
      </trkpt>
      <trkpt lat="48.12367" lon="6.82019">
        <ele>698.75</ele>
        <time>2016-05-29T10:00:26Z</time>
      </trkpt>
      <trkpt lat="48.12341" lon="6.82039">
        <ele>699.47</ele>
        <time>2016-05-29T10:00:43Z</time>
      </trkpt>
      <trkpt lat="48.12323" lon="6.82057">
        <ele>700.15</ele>
        <time>2016-05-29T10:00:59Z</time>
      </trkpt>
      <trkpt lat="48.12307" lon="6.82078">
        <ele>702.25</ele>
        <time>2016-05-29T10:01:19Z</time>
      </trkpt>
      <trkpt lat="48.12287" lon="6.82103">
        <ele>703.13</ele>
        <time>2016-05-29T10:01:41Z</time>
      </trkpt>
      <trkpt lat="48.12265" lon="6.82125">
        <ele>704.3</ele>
        <time>2016-05-29T10:01:58Z</time>
      </trkpt>
      <trkpt lat="48.12247" lon="6.82146">
        <ele>706.27</ele>
        <time>2016-05-29T10:02:16Z</time>
      </trkpt>
      <trkpt lat="48.1223" lon="6.82167">
        <ele>708.37</ele>
        <time>2016-05-29T10:02:34Z</time>
      </trkpt>
      <trkpt lat="48.12214" lon="6.82184">
        <ele>709.1</ele>
        <time>2016-05-29T10:02:51Z</time>
      </trkpt>
      <trkpt lat="48.12198" lon="6.82203">
        <ele>709.9</ele>
        <time>2016-05-29T10:03:10Z</time>
      </trkpt>
      <trkpt lat="48.1218" lon="6.82229">
        <ele>711.53</ele>
        <time>2016-05-29T10:03:31Z</time>
      </trkpt>
      <trkpt lat="48.12159" lon="6.82267">
        <ele>712.99</ele>
        <time>2016-05-29T10:03:52Z</time>
      </trkpt>
      <trkpt lat="48.12147" lon="6.82299">
        <ele>712.82</ele>
        <time>2016-05-29T10:04:09Z</time>
      </trkpt>
      <trkpt lat="48.12126" lon="6.82329">
        <ele>713.19</ele>
        <time>2016-05-29T10:04:27Z</time>
      </trkpt>
      <trkpt lat="48.12111" lon="6.82358">
        <ele>713.41</ele>
        <time>2016-05-29T10:04:45Z</time>
      </trkpt>
      <trkpt lat="48.12104" lon="6.82385">
        <ele>713.97</ele>
        <time>2016-05-29T10:05:01Z</time>
      </trkpt>
      <trkpt lat="48.12094" lon="6.82416">
        <ele>714.6</ele>
        <time>2016-05-29T10:05:25Z</time>
      </trkpt>
      <trkpt lat="48.12103" lon="6.82454">
        <ele>717.27</ele>
        <time>2016-05-29T10:05:48Z</time>
      </trkpt>
      <trkpt lat="48.12117" lon="6.82484">
        <ele>720.98</ele>
        <time>2016-05-29T10:06:11Z</time>
      </trkpt>
      <trkpt lat="48.12135" lon="6.82506">
        <ele>726.4</ele>
        <time>2016-05-29T10:06:35Z</time>
      </trkpt>
      <trkpt lat="48.12143" lon="6.82536">
        <ele>730.46</ele>
        <time>2016-05-29T10:07:01Z</time>
      </trkpt>
      <trkpt lat="48.12146" lon="6.82567">
        <ele>734.63</ele>
        <time>2016-05-29T10:07:27Z</time>
      </trkpt>
      <trkpt lat="48.12152" lon="6.82599">
        <ele>736.64</ele>
        <time>2016-05-29T10:07:53Z</time>
      </trkpt>
      <trkpt lat="48.12159" lon="6.82627">
        <ele>737.78</ele>
        <time>2016-05-29T10:08:26Z</time>
      </trkpt>
      <trkpt lat="48.12144" lon="6.82656">
        <ele>738.45</ele>
        <time>2016-05-29T10:08:50Z</time>
      </trkpt>
      <trkpt lat="48.1214" lon="6.82691">
        <ele>739.36</ele>
        <time>2016-05-29T10:09:08Z</time>
      </trkpt>
      <trkpt lat="48.12135" lon="6.82729">
        <ele>739.87</ele>
        <time>2016-05-29T10:09:26Z</time>
      </trkpt>
      <trkpt lat="48.12129" lon="6.82763">
        <ele>740.85</ele>
        <time>2016-05-29T10:09:43Z</time>
      </trkpt>
      <trkpt lat="48.12125" lon="6.82793">
        <ele>740.99</ele>
        <time>2016-05-29T10:10:05Z</time>
      </trkpt>
      <trkpt lat="48.12126" lon="6.8282">
        <ele>741.44</ele>
        <time>2016-05-29T10:10:25Z</time>
      </trkpt>
      <trkpt lat="48.12122" lon="6.82847">
        <ele>741.16</ele>
        <time>2016-05-29T10:10:45Z</time>
      </trkpt>
      <trkpt lat="48.12109" lon="6.82847">
        <ele>738.74</ele>
        <time>2016-05-29T10:11:08Z</time>
      </trkpt>
      <trkpt lat="48.12104" lon="6.82825">
        <ele>737.2</ele>
        <time>2016-05-29T10:11:29Z</time>
      </trkpt>
      <trkpt lat="48.12101" lon="6.82816">
        <ele>737.17</ele>
        <time>2016-05-29T10:13:01Z</time>
      </trkpt>
      <trkpt lat="48.121" lon="6.8282">
        <ele>730.55</ele>
        <time>2016-05-29T10:36:07Z</time>
      </trkpt>
      <trkpt lat="48.121" lon="6.82821">
        <ele>729.68</ele>
        <time>2016-05-29T10:42:34Z</time>
      </trkpt>
      <trkpt lat="48.12106" lon="6.82818">
        <ele>728.58</ele>
        <time>2016-05-29T10:50:36Z</time>
      </trkpt>
      <trkpt lat="48.12094" lon="6.82818">
        <ele>728.45</ele>
        <time>2016-05-29T10:53:43Z</time>
      </trkpt>
      <trkpt lat="48.12099" lon="6.82816">
        <ele>728.45</ele>
        <time>2016-05-29T10:55:55Z</time>
      </trkpt>
      <trkpt lat="48.12104" lon="6.8282">
        <ele>729.03</ele>
        <time>2016-05-29T10:59:14Z</time>
      </trkpt>
      <trkpt lat="48.12104" lon="6.82819">
        <ele>728.34</ele>
        <time>2016-05-29T11:03:56Z</time>
      </trkpt>
      <trkpt lat="48.121" lon="6.82818">
        <ele>728.02</ele>
        <time>2016-05-29T11:05:24Z</time>
      </trkpt>
      <trkpt lat="48.12105" lon="6.8282">
        <ele>728.21</ele>
        <time>2016-05-29T11:08:06Z</time>
      </trkpt>
      <trkpt lat="48.12106" lon="6.82822">
        <ele>727</ele>
        <time>2016-05-29T11:10:50Z</time>
      </trkpt>
      <trkpt lat="48.12104" lon="6.8283">
        <ele>727.55</ele>
        <time>2016-05-29T11:13:31Z</time>
      </trkpt>
      <trkpt lat="48.1211" lon="6.82835">
        <ele>727.05</ele>
        <time>2016-05-29T11:14:49Z</time>
      </trkpt>
      <trkpt lat="48.12116" lon="6.82853">
        <ele>728.44</ele>
        <time>2016-05-29T11:15:26Z</time>
      </trkpt>
      <trkpt lat="48.12119" lon="6.82868">
        <ele>729.8</ele>
        <time>2016-05-29T11:15:55Z</time>
      </trkpt>
      <trkpt lat="48.12107" lon="6.82889">
        <ele>728.71</ele>
        <time>2016-05-29T11:16:18Z</time>
      </trkpt>
      <trkpt lat="48.12089" lon="6.82896">
        <ele>727.83</ele>
        <time>2016-05-29T11:16:38Z</time>
      </trkpt>
      <trkpt lat="48.12081" lon="6.82912">
        <ele>728.2</ele>
        <time>2016-05-29T11:17:42Z</time>
      </trkpt>
      <trkpt lat="48.12075" lon="6.8293">
        <ele>728.07</ele>
        <time>2016-05-29T11:18:39Z</time>
      </trkpt>
      <trkpt lat="48.1207" lon="6.82954">
        <ele>728.68</ele>
        <time>2016-05-29T11:18:58Z</time>
      </trkpt>
      <trkpt lat="48.12063" lon="6.82979">
        <ele>729.56</ele>
        <time>2016-05-29T11:19:21Z</time>
      </trkpt>
      <trkpt lat="48.12056" lon="6.83006">
        <ele>731.21</ele>
        <time>2016-05-29T11:19:40Z</time>
      </trkpt>
      <trkpt lat="48.12047" lon="6.83033">
        <ele>731.39</ele>
        <time>2016-05-29T11:19:59Z</time>
      </trkpt>
      <trkpt lat="48.12052" lon="6.83056">
        <ele>732.25</ele>
        <time>2016-05-29T11:20:58Z</time>
      </trkpt>
      <trkpt lat="48.12051" lon="6.83081">
        <ele>732.59</ele>
        <time>2016-05-29T11:21:15Z</time>
      </trkpt>
      <trkpt lat="48.12041" lon="6.831">
        <ele>732.7</ele>
        <time>2016-05-29T11:21:35Z</time>
      </trkpt>
      <trkpt lat="48.1203" lon="6.83115">
        <ele>732</ele>
        <time>2016-05-29T11:22:55Z</time>
      </trkpt>
      <trkpt lat="48.12037" lon="6.83137">
        <ele>732.56</ele>
        <time>2016-05-29T11:23:14Z</time>
      </trkpt>
      <trkpt lat="48.12046" lon="6.83126">
        <ele>732.02</ele>
        <time>2016-05-29T11:24:13Z</time>
      </trkpt>
      <trkpt lat="48.12057" lon="6.83103">
        <ele>732.54</ele>
        <time>2016-05-29T11:24:31Z</time>
      </trkpt>
      <trkpt lat="48.12068" lon="6.83081">
        <ele>732.89</ele>
        <time>2016-05-29T11:24:48Z</time>
      </trkpt>
      <trkpt lat="48.12078" lon="6.83058">
        <ele>733.09</ele>
        <time>2016-05-29T11:25:04Z</time>
      </trkpt>
      <trkpt lat="48.12086" lon="6.83033">
        <ele>733.1</ele>
        <time>2016-05-29T11:25:19Z</time>
      </trkpt>
      <trkpt lat="48.12094" lon="6.8301">
        <ele>732.87</ele>
        <time>2016-05-29T11:25:34Z</time>
      </trkpt>
      <trkpt lat="48.12102" lon="6.82983">
        <ele>732.07</ele>
        <time>2016-05-29T11:25:49Z</time>
      </trkpt>
      <trkpt lat="48.1211" lon="6.82958">
        <ele>731.29</ele>
        <time>2016-05-29T11:26:05Z</time>
      </trkpt>
      <trkpt lat="48.12116" lon="6.8293">
        <ele>731.25</ele>
        <time>2016-05-29T11:26:21Z</time>
      </trkpt>
      <trkpt lat="48.12123" lon="6.82903">
        <ele>730.67</ele>
        <time>2016-05-29T11:26:37Z</time>
      </trkpt>
      <trkpt lat="48.12134" lon="6.82895">
        <ele>732.18</ele>
        <time>2016-05-29T11:26:57Z</time>
      </trkpt>
      <trkpt lat="48.1215" lon="6.82904">
        <ele>734.27</ele>
        <time>2016-05-29T11:27:15Z</time>
      </trkpt>
      <trkpt lat="48.12168" lon="6.82905">
        <ele>735.92</ele>
        <time>2016-05-29T11:27:37Z</time>
      </trkpt>
      <trkpt lat="48.12186" lon="6.82887">
        <ele>736.81</ele>
        <time>2016-05-29T11:29:31Z</time>
      </trkpt>
      <trkpt lat="48.12186" lon="6.8286">
        <ele>736.29</ele>
        <time>2016-05-29T11:30:00Z</time>
      </trkpt>
      <trkpt lat="48.12195" lon="6.82831">
        <ele>736.28</ele>
        <time>2016-05-29T11:30:22Z</time>
      </trkpt>
      <trkpt lat="48.12203" lon="6.82799">
        <ele>737.65</ele>
        <time>2016-05-29T11:30:44Z</time>
      </trkpt>
      <trkpt lat="48.12222" lon="6.82784">
        <ele>740.21</ele>
        <time>2016-05-29T11:31:07Z</time>
      </trkpt>
      <trkpt lat="48.1224" lon="6.82789">
        <ele>742.73</ele>
        <time>2016-05-29T11:31:28Z</time>
      </trkpt>
      <trkpt lat="48.1226" lon="6.82794">
        <ele>745.07</ele>
        <time>2016-05-29T11:31:46Z</time>
      </trkpt>
      <trkpt lat="48.12283" lon="6.82787">
        <ele>745.79</ele>
        <time>2016-05-29T11:32:08Z</time>
      </trkpt>
      <trkpt lat="48.12305" lon="6.82786">
        <ele>744.98</ele>
        <time>2016-05-29T11:32:25Z</time>
      </trkpt>
      <trkpt lat="48.12329" lon="6.82771">
        <ele>745.37</ele>
        <time>2016-05-29T11:32:50Z</time>
      </trkpt>
      <trkpt lat="48.1235" lon="6.82743">
        <ele>745.47</ele>
        <time>2016-05-29T11:33:13Z</time>
      </trkpt>
      <trkpt lat="48.12367" lon="6.82714">
        <ele>745.06</ele>
        <time>2016-05-29T11:33:30Z</time>
      </trkpt>
      <trkpt lat="48.12381" lon="6.82682">
        <ele>744.35</ele>
        <time>2016-05-29T11:33:46Z</time>
      </trkpt>
      <trkpt lat="48.12401" lon="6.8266">
        <ele>741.72</ele>
        <time>2016-05-29T11:34:04Z</time>
      </trkpt>
      <trkpt lat="48.1242" lon="6.82627">
        <ele>738.93</ele>
        <time>2016-05-29T11:34:23Z</time>
      </trkpt>
      <trkpt lat="48.12443" lon="6.82608">
        <ele>735.65</ele>
        <time>2016-05-29T11:34:42Z</time>
      </trkpt>
      <trkpt lat="48.12461" lon="6.8257">
        <ele>734.95</ele>
        <time>2016-05-29T11:35:03Z</time>
      </trkpt>
      <trkpt lat="48.12477" lon="6.8255">
        <ele>732.69</ele>
        <time>2016-05-29T11:35:25Z</time>
      </trkpt>
      <trkpt lat="48.12489" lon="6.82527">
        <ele>728.71</ele>
        <time>2016-05-29T11:35:49Z</time>
      </trkpt>
      <trkpt lat="48.12507" lon="6.82494">
        <ele>725.79</ele>
        <time>2016-05-29T11:36:10Z</time>
      </trkpt>
      <trkpt lat="48.12514" lon="6.82466">
        <ele>724.41</ele>
        <time>2016-05-29T11:36:30Z</time>
      </trkpt>
      <trkpt lat="48.12531" lon="6.82434">
        <ele>721.21</ele>
        <time>2016-05-29T11:36:50Z</time>
      </trkpt>
      <trkpt lat="48.12535" lon="6.82408">
        <ele>719.4</ele>
        <time>2016-05-29T11:37:08Z</time>
      </trkpt>
      <trkpt lat="48.12544" lon="6.82373">
        <ele>717.04</ele>
        <time>2016-05-29T11:37:34Z</time>
      </trkpt>
      <trkpt lat="48.12553" lon="6.82354">
        <ele>718.45</ele>
        <time>2016-05-29T11:38:11Z</time>
      </trkpt>
      <trkpt lat="48.12548" lon="6.82355">
        <ele>718.04</ele>
        <time>2016-05-29T11:39:28Z</time>
      </trkpt>
      <trkpt lat="48.12546" lon="6.82349">
        <ele>717.79</ele>
        <time>2016-05-29T11:41:23Z</time>
      </trkpt>
      <trkpt lat="48.12557" lon="6.82329">
        <ele>714.32</ele>
        <time>2016-05-29T11:41:51Z</time>
      </trkpt>
      <trkpt lat="48.12565" lon="6.82298">
        <ele>711.6</ele>
        <time>2016-05-29T11:42:14Z</time>
      </trkpt>
      <trkpt lat="48.12578" lon="6.82271">
        <ele>707.88</ele>
        <time>2016-05-29T11:42:40Z</time>
      </trkpt>
      <trkpt lat="48.12588" lon="6.82244">
        <ele>705.5</ele>
        <time>2016-05-29T11:43:01Z</time>
      </trkpt>
      <trkpt lat="48.1259" lon="6.82217">
        <ele>703.82</ele>
        <time>2016-05-29T11:43:33Z</time>
      </trkpt>
      <trkpt lat="48.12611" lon="6.82229">
        <ele>695.69</ele>
        <time>2016-05-29T11:44:18Z</time>
      </trkpt>
      <trkpt lat="48.12633" lon="6.82221">
        <ele>693.02</ele>
        <time>2016-05-29T11:44:44Z</time>
      </trkpt>
      <trkpt lat="48.12655" lon="6.82192">
        <ele>691.98</ele>
        <time>2016-05-29T11:45:11Z</time>
      </trkpt>
      <trkpt lat="48.12669" lon="6.8216">
        <ele>690.87</ele>
        <time>2016-05-29T11:45:38Z</time>
      </trkpt>
      <trkpt lat="48.12669" lon="6.82132">
        <ele>691.89</ele>
        <time>2016-05-29T11:46:05Z</time>
      </trkpt>
      <trkpt lat="48.12686" lon="6.82121">
        <ele>686.29</ele>
        <time>2016-05-29T11:46:39Z</time>
      </trkpt>
      <trkpt lat="48.12709" lon="6.82109">
        <ele>678.63</ele>
        <time>2016-05-29T11:47:08Z</time>
      </trkpt>
      <trkpt lat="48.12726" lon="6.82083">
        <ele>673.47</ele>
        <time>2016-05-29T11:47:36Z</time>
      </trkpt>
      <trkpt lat="48.12747" lon="6.82061">
        <ele>668.2</ele>
        <time>2016-05-29T11:48:05Z</time>
      </trkpt>
      <trkpt lat="48.12767" lon="6.82042">
        <ele>663.45</ele>
        <time>2016-05-29T11:48:28Z</time>
      </trkpt>
      <trkpt lat="48.12787" lon="6.82018">
        <ele>658.07</ele>
        <time>2016-05-29T11:48:54Z</time>
      </trkpt>
      <trkpt lat="48.12804" lon="6.81995">
        <ele>652.54</ele>
        <time>2016-05-29T11:49:23Z</time>
      </trkpt>
      <trkpt lat="48.12825" lon="6.81977">
        <ele>647.2</ele>
        <time>2016-05-29T11:49:49Z</time>
      </trkpt>
      <trkpt lat="48.12843" lon="6.81943">
        <ele>642.16</ele>
        <time>2016-05-29T11:50:18Z</time>
      </trkpt>
      <trkpt lat="48.12862" lon="6.81923">
        <ele>636.17</ele>
        <time>2016-05-29T11:50:51Z</time>
      </trkpt>
      <trkpt lat="48.12883" lon="6.81914">
        <ele>631.82</ele>
        <time>2016-05-29T11:51:15Z</time>
      </trkpt>
      <trkpt lat="48.12902" lon="6.81897">
        <ele>628.65</ele>
        <time>2016-05-29T11:51:45Z</time>
      </trkpt>
      <trkpt lat="48.12922" lon="6.81891">
        <ele>621.32</ele>
        <time>2016-05-29T11:52:10Z</time>
      </trkpt>
      <trkpt lat="48.12942" lon="6.81888">
        <ele>615.38</ele>
        <time>2016-05-29T11:52:34Z</time>
      </trkpt>
      <trkpt lat="48.12965" lon="6.81887">
        <ele>611.59</ele>
        <time>2016-05-29T11:52:54Z</time>
      </trkpt>
      <trkpt lat="48.12993" lon="6.81878">
        <ele>607.67</ele>
        <time>2016-05-29T11:53:25Z</time>
      </trkpt>
      <trkpt lat="48.13009" lon="6.81871">
        <ele>608.38</ele>
        <time>2016-05-29T11:54:04Z</time>
      </trkpt>
      <trkpt lat="48.13" lon="6.8186">
        <ele>608.78</ele>
        <time>2016-05-29T11:54:45Z</time>
      </trkpt>
      <trkpt lat="48.1301" lon="6.81868">
        <ele>608.04</ele>
        <time>2016-05-29T11:55:32Z</time>
      </trkpt>
      <trkpt lat="48.13023" lon="6.81862">
        <ele>604.56</ele>
        <time>2016-05-29T11:56:29Z</time>
      </trkpt>
      <trkpt lat="48.13042" lon="6.81844">
        <ele>599.51</ele>
        <time>2016-05-29T11:56:58Z</time>
      </trkpt>
      <trkpt lat="48.13062" lon="6.81826">
        <ele>596.43</ele>
        <time>2016-05-29T11:57:26Z</time>
      </trkpt>
      <trkpt lat="48.13067" lon="6.81809">
        <ele>596.3</ele>
        <time>2016-05-29T11:58:43Z</time>
      </trkpt>
      <trkpt lat="48.13062" lon="6.81812">
        <ele>598.02</ele>
        <time>2016-05-29T11:59:33Z</time>
      </trkpt>
      <trkpt lat="48.13045" lon="6.81843">
        <ele>599.65</ele>
        <time>2016-05-29T11:59:59Z</time>
      </trkpt>
      <trkpt lat="48.13018" lon="6.81895">
        <ele>599.28</ele>
        <time>2016-05-29T12:00:32Z</time>
      </trkpt>
      <trkpt lat="48.12988" lon="6.81926">
        <ele>599.79</ele>
        <time>2016-05-29T12:01:00Z</time>
      </trkpt>
      <trkpt lat="48.12971" lon="6.81957">
        <ele>600.43</ele>
        <time>2016-05-29T12:01:20Z</time>
      </trkpt>
      <trkpt lat="48.12957" lon="6.81984">
        <ele>602</ele>
        <time>2016-05-29T12:01:51Z</time>
      </trkpt>
      <trkpt lat="48.12939" lon="6.82002">
        <ele>605.61</ele>
        <time>2016-05-29T12:02:24Z</time>
      </trkpt>
      <trkpt lat="48.12917" lon="6.82027">
        <ele>605.89</ele>
        <time>2016-05-29T12:02:54Z</time>
      </trkpt>
      <trkpt lat="48.1287" lon="6.82069">
        <ele>603.76</ele>
        <time>2016-05-29T12:03:19Z</time>
      </trkpt>
      <trkpt lat="48.12851" lon="6.82109">
        <ele>603.03</ele>
        <time>2016-05-29T12:03:43Z</time>
      </trkpt>
      <trkpt lat="48.12845" lon="6.82148">
        <ele>600.62</ele>
        <time>2016-05-29T12:04:07Z</time>
      </trkpt>
      <trkpt lat="48.12839" lon="6.82192">
        <ele>595.75</ele>
        <time>2016-05-29T12:04:33Z</time>
      </trkpt>
      <trkpt lat="48.12837" lon="6.82237">
        <ele>593.6</ele>
        <time>2016-05-29T12:04:59Z</time>
      </trkpt>
      <trkpt lat="48.12831" lon="6.82297">
        <ele>590.49</ele>
        <time>2016-05-29T12:05:25Z</time>
      </trkpt>
      <trkpt lat="48.12845" lon="6.82333">
        <ele>590.87</ele>
        <time>2016-05-29T12:06:18Z</time>
      </trkpt>
      <trkpt lat="48.12839" lon="6.82347">
        <ele>589.65</ele>
        <time>2016-05-29T12:06:51Z</time>
      </trkpt>
      <trkpt lat="48.12837" lon="6.82375">
        <ele>589.46</ele>
        <time>2016-05-29T12:07:13Z</time>
      </trkpt>
      <trkpt lat="48.12837" lon="6.82406">
        <ele>586.38</ele>
        <time>2016-05-29T12:07:33Z</time>
      </trkpt>
      <trkpt lat="48.12832" lon="6.82432">
        <ele>587.13</ele>
        <time>2016-05-29T12:07:53Z</time>
      </trkpt>
      <trkpt lat="48.12832" lon="6.82488">
        <ele>585.82</ele>
        <time>2016-05-29T12:08:21Z</time>
      </trkpt>
      <trkpt lat="48.12827" lon="6.82523">
        <ele>587.07</ele>
        <time>2016-05-29T12:08:59Z</time>
      </trkpt>
      <trkpt lat="48.12827" lon="6.82531">
        <ele>586.16</ele>
        <time>2016-05-29T12:10:43Z</time>
      </trkpt>
      <trkpt lat="48.12819" lon="6.82527">
        <ele>586.47</ele>
        <time>2016-05-29T12:11:53Z</time>
      </trkpt>
      <trkpt lat="48.12803" lon="6.82549">
        <ele>586.95</ele>
        <time>2016-05-29T12:12:28Z</time>
      </trkpt>
      <trkpt lat="48.12787" lon="6.82575">
        <ele>588.99</ele>
        <time>2016-05-29T12:12:50Z</time>
      </trkpt>
      <trkpt lat="48.12768" lon="6.82605">
        <ele>590.43</ele>
        <time>2016-05-29T12:13:13Z</time>
      </trkpt>
      <trkpt lat="48.12749" lon="6.82636">
        <ele>590.52</ele>
        <time>2016-05-29T12:13:32Z</time>
      </trkpt>
      <trkpt lat="48.12743" lon="6.82674">
        <ele>591.39</ele>
        <time>2016-05-29T12:13:53Z</time>
      </trkpt>
      <trkpt lat="48.12732" lon="6.82705">
        <ele>589.39</ele>
        <time>2016-05-29T12:14:15Z</time>
      </trkpt>
      <trkpt lat="48.12719" lon="6.82741">
        <ele>587.78</ele>
        <time>2016-05-29T12:14:36Z</time>
      </trkpt>
      <trkpt lat="48.12698" lon="6.82774">
        <ele>588.31</ele>
        <time>2016-05-29T12:14:54Z</time>
      </trkpt>
      <trkpt lat="48.12695" lon="6.82816">
        <ele>588.37</ele>
        <time>2016-05-29T12:15:21Z</time>
      </trkpt>
      <trkpt lat="48.12683" lon="6.82836">
        <ele>587.03</ele>
        <time>2016-05-29T12:15:59Z</time>
      </trkpt>
      <trkpt lat="48.12669" lon="6.82855">
        <ele>586.79</ele>
        <time>2016-05-29T12:16:20Z</time>
      </trkpt>
      <trkpt lat="48.12655" lon="6.82878">
        <ele>587.19</ele>
        <time>2016-05-29T12:16:40Z</time>
      </trkpt>
      <trkpt lat="48.1264" lon="6.82908">
        <ele>588.47</ele>
        <time>2016-05-29T12:17:01Z</time>
      </trkpt>
      <trkpt lat="48.12621" lon="6.82934">
        <ele>588.2</ele>
        <time>2016-05-29T12:17:20Z</time>
      </trkpt>
      <trkpt lat="48.12603" lon="6.82955">
        <ele>589.04</ele>
        <time>2016-05-29T12:17:41Z</time>
      </trkpt>
      <trkpt lat="48.1258" lon="6.82973">
        <ele>589.65</ele>
        <time>2016-05-29T12:17:58Z</time>
      </trkpt>
      <trkpt lat="48.12565" lon="6.82999">
        <ele>589.54</ele>
        <time>2016-05-29T12:18:18Z</time>
      </trkpt>
      <trkpt lat="48.12562" lon="6.83033">
        <ele>589.39</ele>
        <time>2016-05-29T12:18:43Z</time>
      </trkpt>
      <trkpt lat="48.12572" lon="6.83025">
        <ele>588.77</ele>
        <time>2016-05-29T12:19:11Z</time>
      </trkpt>
      <trkpt lat="48.12587" lon="6.83003">
        <ele>589.64</ele>
        <time>2016-05-29T12:19:34Z</time>
      </trkpt>
      <trkpt lat="48.12605" lon="6.82982">
        <ele>588.57</ele>
        <time>2016-05-29T12:19:54Z</time>
      </trkpt>
      <trkpt lat="48.12623" lon="6.82963">
        <ele>588.61</ele>
        <time>2016-05-29T12:20:11Z</time>
      </trkpt>
      <trkpt lat="48.12641" lon="6.82934">
        <ele>587.21</ele>
        <time>2016-05-29T12:20:34Z</time>
      </trkpt>
      <trkpt lat="48.12658" lon="6.82905">
        <ele>587.38</ele>
        <time>2016-05-29T12:20:56Z</time>
      </trkpt>
      <trkpt lat="48.12675" lon="6.8287">
        <ele>587.15</ele>
        <time>2016-05-29T12:21:17Z</time>
      </trkpt>
      <trkpt lat="48.12688" lon="6.82846">
        <ele>587.45</ele>
        <time>2016-05-29T12:21:36Z</time>
      </trkpt>
      <trkpt lat="48.12702" lon="6.82817">
        <ele>588.03</ele>
        <time>2016-05-29T12:21:55Z</time>
      </trkpt>
      <trkpt lat="48.12715" lon="6.82786">
        <ele>588.53</ele>
        <time>2016-05-29T12:22:14Z</time>
      </trkpt>
      <trkpt lat="48.12729" lon="6.82752">
        <ele>590.86</ele>
        <time>2016-05-29T12:22:32Z</time>
      </trkpt>
      <trkpt lat="48.12735" lon="6.82716">
        <ele>590.99</ele>
        <time>2016-05-29T12:23:01Z</time>
      </trkpt>
      <trkpt lat="48.12744" lon="6.82688">
        <ele>590.27</ele>
        <time>2016-05-29T12:23:20Z</time>
      </trkpt>
      <trkpt lat="48.1276" lon="6.82648">
        <ele>589.53</ele>
        <time>2016-05-29T12:23:50Z</time>
      </trkpt>
      <trkpt lat="48.12784" lon="6.82619">
        <ele>588.21</ele>
        <time>2016-05-29T12:24:08Z</time>
      </trkpt>
      <trkpt lat="48.12797" lon="6.82587">
        <ele>587.24</ele>
        <time>2016-05-29T12:24:26Z</time>
      </trkpt>
      <trkpt lat="48.12811" lon="6.8257">
        <ele>586.97</ele>
        <time>2016-05-29T12:24:55Z</time>
      </trkpt>
      <trkpt lat="48.12827" lon="6.82547">
        <ele>585.96</ele>
        <time>2016-05-29T12:25:12Z</time>
      </trkpt>
      <trkpt lat="48.12837" lon="6.82517">
        <ele>584.78</ele>
        <time>2016-05-29T12:25:36Z</time>
      </trkpt>
      <trkpt lat="48.12845" lon="6.82491">
        <ele>585.51</ele>
        <time>2016-05-29T12:25:53Z</time>
      </trkpt>
      <trkpt lat="48.12851" lon="6.82459">
        <ele>585.9</ele>
        <time>2016-05-29T12:26:15Z</time>
      </trkpt>
      <trkpt lat="48.12856" lon="6.82428">
        <ele>585.68</ele>
        <time>2016-05-29T12:26:35Z</time>
      </trkpt>
      <trkpt lat="48.12843" lon="6.82451">
        <ele>585.14</ele>
        <time>2016-05-29T12:26:56Z</time>
      </trkpt>
      <trkpt lat="48.12838" lon="6.82488">
        <ele>584.34</ele>
        <time>2016-05-29T12:27:15Z</time>
      </trkpt>
      <trkpt lat="48.12842" lon="6.82518">
        <ele>584.31</ele>
        <time>2016-05-29T12:27:56Z</time>
      </trkpt>
      <trkpt lat="48.12858" lon="6.82526">
        <ele>583.54</ele>
        <time>2016-05-29T12:28:25Z</time>
      </trkpt>
      <trkpt lat="48.12875" lon="6.82538">
        <ele>582.57</ele>
        <time>2016-05-29T12:28:43Z</time>
      </trkpt>
      <trkpt lat="48.12893" lon="6.82545">
        <ele>581.21</ele>
        <time>2016-05-29T12:28:58Z</time>
      </trkpt>
      <trkpt lat="48.12911" lon="6.8254">
        <ele>579.81</ele>
        <time>2016-05-29T12:29:15Z</time>
      </trkpt>
      <trkpt lat="48.12922" lon="6.82527">
        <ele>579.02</ele>
        <time>2016-05-29T12:29:37Z</time>
      </trkpt>
      <trkpt lat="48.12936" lon="6.82507">
        <ele>577.79</ele>
        <time>2016-05-29T12:29:55Z</time>
      </trkpt>
      <trkpt lat="48.12952" lon="6.82485">
        <ele>577.02</ele>
        <time>2016-05-29T12:30:12Z</time>
      </trkpt>
      <trkpt lat="48.12969" lon="6.82463">
        <ele>576.16</ele>
        <time>2016-05-29T12:30:29Z</time>
      </trkpt>
      <trkpt lat="48.12984" lon="6.82441">
        <ele>576.15</ele>
        <time>2016-05-29T12:30:45Z</time>
      </trkpt>
      <trkpt lat="48.13" lon="6.82417">
        <ele>574.92</ele>
        <time>2016-05-29T12:31:02Z</time>
      </trkpt>
      <trkpt lat="48.13014" lon="6.82391">
        <ele>574.22</ele>
        <time>2016-05-29T12:31:17Z</time>
      </trkpt>
      <trkpt lat="48.13026" lon="6.82369">
        <ele>574.64</ele>
        <time>2016-05-29T12:31:31Z</time>
      </trkpt>
      <trkpt lat="48.13038" lon="6.82346">
        <ele>573.38</ele>
        <time>2016-05-29T12:31:45Z</time>
      </trkpt>
      <trkpt lat="48.13051" lon="6.82323">
        <ele>572.53</ele>
        <time>2016-05-29T12:32:00Z</time>
      </trkpt>
      <trkpt lat="48.13062" lon="6.823">
        <ele>571.7</ele>
        <time>2016-05-29T12:32:15Z</time>
      </trkpt>
      <trkpt lat="48.13073" lon="6.82278">
        <ele>571.09</ele>
        <time>2016-05-29T12:32:29Z</time>
      </trkpt>
      <trkpt lat="48.13084" lon="6.82257">
        <ele>570.68</ele>
        <time>2016-05-29T12:32:46Z</time>
      </trkpt>
      <trkpt lat="48.13081" lon="6.82275">
        <ele>569.8</ele>
        <time>2016-05-29T12:33:10Z</time>
      </trkpt>
      <trkpt lat="48.13071" lon="6.82297">
        <ele>569.2</ele>
        <time>2016-05-29T12:33:23Z</time>
      </trkpt>
      <trkpt lat="48.13061" lon="6.82319">
        <ele>568.37</ele>
        <time>2016-05-29T12:33:36Z</time>
      </trkpt>
      <trkpt lat="48.1305" lon="6.82341">
        <ele>568.42</ele>
        <time>2016-05-29T12:33:49Z</time>
      </trkpt>
      <trkpt lat="48.13038" lon="6.82363">
        <ele>567.62</ele>
        <time>2016-05-29T12:34:02Z</time>
      </trkpt>
      <trkpt lat="48.13027" lon="6.82385">
        <ele>566.52</ele>
        <time>2016-05-29T12:34:16Z</time>
      </trkpt>
      <trkpt lat="48.13015" lon="6.82407">
        <ele>566.13</ele>
        <time>2016-05-29T12:34:31Z</time>
      </trkpt>
      <trkpt lat="48.13004" lon="6.82431">
        <ele>565.97</ele>
        <time>2016-05-29T12:34:46Z</time>
      </trkpt>
      <trkpt lat="48.12993" lon="6.82453">
        <ele>565.04</ele>
        <time>2016-05-29T12:35:01Z</time>
      </trkpt>
      <trkpt lat="48.12981" lon="6.82477">
        <ele>564.71</ele>
        <time>2016-05-29T12:35:17Z</time>
      </trkpt>
      <trkpt lat="48.1297" lon="6.82501">
        <ele>564.13</ele>
        <time>2016-05-29T12:35:34Z</time>
      </trkpt>
      <trkpt lat="48.1296" lon="6.82531">
        <ele>563.24</ele>
        <time>2016-05-29T12:35:52Z</time>
      </trkpt>
      <trkpt lat="48.12957" lon="6.82562">
        <ele>563.43</ele>
        <time>2016-05-29T12:36:08Z</time>
      </trkpt>
      <trkpt lat="48.12965" lon="6.82591">
        <ele>562.76</ele>
        <time>2016-05-29T12:36:37Z</time>
      </trkpt>
      <trkpt lat="48.12974" lon="6.82616">
        <ele>562.65</ele>
        <time>2016-05-29T12:36:55Z</time>
      </trkpt>
      <trkpt lat="48.12986" lon="6.82639">
        <ele>562.93</ele>
        <time>2016-05-29T12:37:12Z</time>
      </trkpt>
      <trkpt lat="48.12998" lon="6.8266">
        <ele>562.04</ele>
        <time>2016-05-29T12:37:28Z</time>
      </trkpt>
      <trkpt lat="48.13009" lon="6.82683">
        <ele>561.85</ele>
        <time>2016-05-29T12:37:43Z</time>
      </trkpt>
      <trkpt lat="48.13019" lon="6.82707">
        <ele>561.86</ele>
        <time>2016-05-29T12:37:57Z</time>
      </trkpt>
      <trkpt lat="48.13025" lon="6.82733">
        <ele>560.81</ele>
        <time>2016-05-29T12:38:11Z</time>
      </trkpt>
      <trkpt lat="48.1303" lon="6.82758">
        <ele>561.06</ele>
        <time>2016-05-29T12:38:25Z</time>
      </trkpt>
      <trkpt lat="48.13034" lon="6.82784">
        <ele>561.7</ele>
        <time>2016-05-29T12:38:39Z</time>
      </trkpt>
      <trkpt lat="48.13041" lon="6.82806">
        <ele>560.86</ele>
        <time>2016-05-29T12:38:54Z</time>
      </trkpt>
      <trkpt lat="48.13058" lon="6.82813">
        <ele>561.03</ele>
        <time>2016-05-29T12:39:09Z</time>
      </trkpt>
      <trkpt lat="48.13076" lon="6.82822">
        <ele>560.97</ele>
        <time>2016-05-29T12:39:24Z</time>
      </trkpt>
      <trkpt lat="48.13094" lon="6.82829">
        <ele>561.79</ele>
        <time>2016-05-29T12:39:42Z</time>
      </trkpt>
      <trkpt lat="48.13105" lon="6.82852">
        <ele>563.53</ele>
        <time>2016-05-29T12:40:00Z</time>
      </trkpt>
      <trkpt lat="48.13113" lon="6.82878">
        <ele>565.03</ele>
        <time>2016-05-29T12:40:15Z</time>
      </trkpt>
      <trkpt lat="48.13111" lon="6.82903">
        <ele>567.05</ele>
        <time>2016-05-29T12:40:29Z</time>
      </trkpt>
      <trkpt lat="48.13098" lon="6.82921">
        <ele>567.9</ele>
        <time>2016-05-29T12:40:44Z</time>
      </trkpt>
      <trkpt lat="48.13086" lon="6.82941">
        <ele>568.72</ele>
        <time>2016-05-29T12:41:03Z</time>
      </trkpt>
      <trkpt lat="48.13077" lon="6.82965">
        <ele>570.54</ele>
        <time>2016-05-29T12:41:19Z</time>
      </trkpt>
      <trkpt lat="48.13082" lon="6.82991">
        <ele>572.53</ele>
        <time>2016-05-29T12:41:35Z</time>
      </trkpt>
      <trkpt lat="48.13091" lon="6.83017">
        <ele>573.84</ele>
        <time>2016-05-29T12:41:52Z</time>
      </trkpt>
      <trkpt lat="48.13098" lon="6.83041">
        <ele>574.53</ele>
        <time>2016-05-29T12:42:28Z</time>
      </trkpt>
      <trkpt lat="48.1311" lon="6.83065">
        <ele>576.35</ele>
        <time>2016-05-29T12:42:46Z</time>
      </trkpt>
      <trkpt lat="48.1312" lon="6.83091">
        <ele>577.92</ele>
        <time>2016-05-29T12:43:01Z</time>
      </trkpt>
      <trkpt lat="48.13127" lon="6.83116">
        <ele>579.04</ele>
        <time>2016-05-29T12:43:16Z</time>
      </trkpt>
      <trkpt lat="48.13139" lon="6.83139">
        <ele>581.83</ele>
        <time>2016-05-29T12:43:36Z</time>
      </trkpt>
      <trkpt lat="48.13127" lon="6.8315">
        <ele>584.81</ele>
        <time>2016-05-29T12:43:59Z</time>
      </trkpt>
      <trkpt lat="48.13114" lon="6.83161">
        <ele>585.61</ele>
        <time>2016-05-29T12:44:44Z</time>
      </trkpt>
      <trkpt lat="48.13107" lon="6.83171">
        <ele>585.08</ele>
        <time>2016-05-29T12:45:47Z</time>
      </trkpt>
      <trkpt lat="48.13124" lon="6.83167">
        <ele>585.04</ele>
        <time>2016-05-29T12:46:33Z</time>
      </trkpt>
      <trkpt lat="48.13124" lon="6.83172">
        <ele>585.92</ele>
        <time>2016-05-29T12:47:37Z</time>
      </trkpt>
      <trkpt lat="48.13136" lon="6.832">
        <ele>589.58</ele>
        <time>2016-05-29T12:48:00Z</time>
      </trkpt>
      <trkpt lat="48.13152" lon="6.83221">
        <ele>590.26</ele>
        <time>2016-05-29T12:48:22Z</time>
      </trkpt>
      <trkpt lat="48.13178" lon="6.83225">
        <ele>593.53</ele>
        <time>2016-05-29T12:48:53Z</time>
      </trkpt>
      <trkpt lat="48.13205" lon="6.83213">
        <ele>598.25</ele>
        <time>2016-05-29T12:49:21Z</time>
      </trkpt>
      <trkpt lat="48.13227" lon="6.83193">
        <ele>602.04</ele>
        <time>2016-05-29T12:49:47Z</time>
      </trkpt>
      <trkpt lat="48.13249" lon="6.83177">
        <ele>607.13</ele>
        <time>2016-05-29T12:50:14Z</time>
      </trkpt>
      <trkpt lat="48.13269" lon="6.83156">
        <ele>611.93</ele>
        <time>2016-05-29T12:50:39Z</time>
      </trkpt>
      <trkpt lat="48.13294" lon="6.83134">
        <ele>618.07</ele>
        <time>2016-05-29T12:51:06Z</time>
      </trkpt>
      <trkpt lat="48.13315" lon="6.83105">
        <ele>621.34</ele>
        <time>2016-05-29T12:51:32Z</time>
      </trkpt>
      <trkpt lat="48.13336" lon="6.83087">
        <ele>624.85</ele>
        <time>2016-05-29T12:51:57Z</time>
      </trkpt>
      <trkpt lat="48.13359" lon="6.83074">
        <ele>629.37</ele>
        <time>2016-05-29T12:52:18Z</time>
      </trkpt>
      <trkpt lat="48.13378" lon="6.83061">
        <ele>633.56</ele>
        <time>2016-05-29T12:52:38Z</time>
      </trkpt>
      <trkpt lat="48.13399" lon="6.83055">
        <ele>637.07</ele>
        <time>2016-05-29T12:52:59Z</time>
      </trkpt>
      <trkpt lat="48.1342" lon="6.83061">
        <ele>641.54</ele>
        <time>2016-05-29T12:53:21Z</time>
      </trkpt>
      <trkpt lat="48.13429" lon="6.83044">
        <ele>641.23</ele>
        <time>2016-05-29T12:54:41Z</time>
      </trkpt>
      <trkpt lat="48.13427" lon="6.8305">
        <ele>640.03</ele>
        <time>2016-05-29T12:58:24Z</time>
      </trkpt>
      <trkpt lat="48.13433" lon="6.83084">
        <ele>641.49</ele>
        <time>2016-05-29T12:58:44Z</time>
      </trkpt>
      <trkpt lat="48.13443" lon="6.83113">
        <ele>645.26</ele>
        <time>2016-05-29T12:59:05Z</time>
      </trkpt>
      <trkpt lat="48.13448" lon="6.83143">
        <ele>649.27</ele>
        <time>2016-05-29T12:59:29Z</time>
      </trkpt>
      <trkpt lat="48.13446" lon="6.83172">
        <ele>652.15</ele>
        <time>2016-05-29T12:59:50Z</time>
      </trkpt>
      <trkpt lat="48.13432" lon="6.83202">
        <ele>654.84</ele>
        <time>2016-05-29T13:00:13Z</time>
      </trkpt>
      <trkpt lat="48.13419" lon="6.83229">
        <ele>656.16</ele>
        <time>2016-05-29T13:00:32Z</time>
      </trkpt>
      <trkpt lat="48.13405" lon="6.83256">
        <ele>658.3</ele>
        <time>2016-05-29T13:00:54Z</time>
      </trkpt>
      <trkpt lat="48.13389" lon="6.8329">
        <ele>659.61</ele>
        <time>2016-05-29T13:01:16Z</time>
      </trkpt>
      <trkpt lat="48.13374" lon="6.83316">
        <ele>660.68</ele>
        <time>2016-05-29T13:01:33Z</time>
      </trkpt>
      <trkpt lat="48.1336" lon="6.83344">
        <ele>663.78</ele>
        <time>2016-05-29T13:01:53Z</time>
      </trkpt>
      <trkpt lat="48.13349" lon="6.83378">
        <ele>668.45</ele>
        <time>2016-05-29T13:02:19Z</time>
      </trkpt>
      <trkpt lat="48.13335" lon="6.83413">
        <ele>671.83</ele>
        <time>2016-05-29T13:02:43Z</time>
      </trkpt>
      <trkpt lat="48.13315" lon="6.83433">
        <ele>673.33</ele>
        <time>2016-05-29T13:03:07Z</time>
      </trkpt>
      <trkpt lat="48.13303" lon="6.83475">
        <ele>676.06</ele>
        <time>2016-05-29T13:03:27Z</time>
      </trkpt>
      <trkpt lat="48.13307" lon="6.83494">
        <ele>676.96</ele>
        <time>2016-05-29T13:04:08Z</time>
      </trkpt>
      <trkpt lat="48.13291" lon="6.83489">
        <ele>677.44</ele>
        <time>2016-05-29T13:05:42Z</time>
      </trkpt>
      <trkpt lat="48.13301" lon="6.83492">
        <ele>677.62</ele>
        <time>2016-05-29T13:06:39Z</time>
      </trkpt>
      <trkpt lat="48.13282" lon="6.83501">
        <ele>679.26</ele>
        <time>2016-05-29T13:07:02Z</time>
      </trkpt>
      <trkpt lat="48.13261" lon="6.83507">
        <ele>679.87</ele>
        <time>2016-05-29T13:07:19Z</time>
      </trkpt>
      <trkpt lat="48.13242" lon="6.83509">
        <ele>680.81</ele>
        <time>2016-05-29T13:07:40Z</time>
      </trkpt>
      <trkpt lat="48.13226" lon="6.83494">
        <ele>678.89</ele>
        <time>2016-05-29T13:08:16Z</time>
      </trkpt>
      <trkpt lat="48.13206" lon="6.83476">
        <ele>678.84</ele>
        <time>2016-05-29T13:08:36Z</time>
      </trkpt>
      <trkpt lat="48.13187" lon="6.83458">
        <ele>682.29</ele>
        <time>2016-05-29T13:09:00Z</time>
      </trkpt>
      <trkpt lat="48.13167" lon="6.8346">
        <ele>687.17</ele>
        <time>2016-05-29T13:09:22Z</time>
      </trkpt>
      <trkpt lat="48.13148" lon="6.83464">
        <ele>689.84</ele>
        <time>2016-05-29T13:09:42Z</time>
      </trkpt>
      <trkpt lat="48.13129" lon="6.83467">
        <ele>690.53</ele>
        <time>2016-05-29T13:10:00Z</time>
      </trkpt>
      <trkpt lat="48.1311" lon="6.83479">
        <ele>688.97</ele>
        <time>2016-05-29T13:10:20Z</time>
      </trkpt>
      <trkpt lat="48.13095" lon="6.83494">
        <ele>689.21</ele>
        <time>2016-05-29T13:10:55Z</time>
      </trkpt>
      <trkpt lat="48.13084" lon="6.83513">
        <ele>690.69</ele>
        <time>2016-05-29T13:11:30Z</time>
      </trkpt>
      <trkpt lat="48.13072" lon="6.83534">
        <ele>691.69</ele>
        <time>2016-05-29T13:11:50Z</time>
      </trkpt>
      <trkpt lat="48.1306" lon="6.83561">
        <ele>692.09</ele>
        <time>2016-05-29T13:12:09Z</time>
      </trkpt>
      <trkpt lat="48.13045" lon="6.83586">
        <ele>692.41</ele>
        <time>2016-05-29T13:12:29Z</time>
      </trkpt>
      <trkpt lat="48.13032" lon="6.83612">
        <ele>691.68</ele>
        <time>2016-05-29T13:12:47Z</time>
      </trkpt>
      <trkpt lat="48.13022" lon="6.83639">
        <ele>690.85</ele>
        <time>2016-05-29T13:13:07Z</time>
      </trkpt>
      <trkpt lat="48.13006" lon="6.83672">
        <ele>690.58</ele>
        <time>2016-05-29T13:13:30Z</time>
      </trkpt>
      <trkpt lat="48.13002" lon="6.83711">
        <ele>690.64</ele>
        <time>2016-05-29T13:13:57Z</time>
      </trkpt>
      <trkpt lat="48.13006" lon="6.83761">
        <ele>690.66</ele>
        <time>2016-05-29T13:14:26Z</time>
      </trkpt>
      <trkpt lat="48.1301" lon="6.83795">
        <ele>689.21</ele>
        <time>2016-05-29T13:14:53Z</time>
      </trkpt>
      <trkpt lat="48.1301" lon="6.83825">
        <ele>688.88</ele>
        <time>2016-05-29T13:15:19Z</time>
      </trkpt>
      <trkpt lat="48.13019" lon="6.83854">
        <ele>689.86</ele>
        <time>2016-05-29T13:15:37Z</time>
      </trkpt>
      <trkpt lat="48.13022" lon="6.83893">
        <ele>688.79</ele>
        <time>2016-05-29T13:15:56Z</time>
      </trkpt>
      <trkpt lat="48.13036" lon="6.83926">
        <ele>687.64</ele>
        <time>2016-05-29T13:16:13Z</time>
      </trkpt>
      <trkpt lat="48.13047" lon="6.83953">
        <ele>687.06</ele>
        <time>2016-05-29T13:16:28Z</time>
      </trkpt>
      <trkpt lat="48.13058" lon="6.83986">
        <ele>685.19</ele>
        <time>2016-05-29T13:16:44Z</time>
      </trkpt>
      <trkpt lat="48.13069" lon="6.84015">
        <ele>682.45</ele>
        <time>2016-05-29T13:17:02Z</time>
      </trkpt>
      <trkpt lat="48.13078" lon="6.84045">
        <ele>679.39</ele>
        <time>2016-05-29T13:17:20Z</time>
      </trkpt>
      <trkpt lat="48.13082" lon="6.84078">
        <ele>677.55</ele>
        <time>2016-05-29T13:17:38Z</time>
      </trkpt>
      <trkpt lat="48.13089" lon="6.84114">
        <ele>674.52</ele>
        <time>2016-05-29T13:17:56Z</time>
      </trkpt>
      <trkpt lat="48.13111" lon="6.84128">
        <ele>671.43</ele>
        <time>2016-05-29T13:18:12Z</time>
      </trkpt>
      <trkpt lat="48.13123" lon="6.84147">
        <ele>670.84</ele>
        <time>2016-05-29T13:18:29Z</time>
      </trkpt>
      <trkpt lat="48.1313" lon="6.84147">
        <ele>669.54</ele>
        <time>2016-05-29T13:20:29Z</time>
      </trkpt>
      <trkpt lat="48.13149" lon="6.84137">
        <ele>666.45</ele>
        <time>2016-05-29T13:20:51Z</time>
      </trkpt>
      <trkpt lat="48.13169" lon="6.84135">
        <ele>664.17</ele>
        <time>2016-05-29T13:21:08Z</time>
      </trkpt>
      <trkpt lat="48.13187" lon="6.84129">
        <ele>661.26</ele>
        <time>2016-05-29T13:21:25Z</time>
      </trkpt>
      <trkpt lat="48.13204" lon="6.84122">
        <ele>658.28</ele>
        <time>2016-05-29T13:21:49Z</time>
      </trkpt>
      <trkpt lat="48.1323" lon="6.84108">
        <ele>655.17</ele>
        <time>2016-05-29T13:22:20Z</time>
      </trkpt>
      <trkpt lat="48.13247" lon="6.84091">
        <ele>653.87</ele>
        <time>2016-05-29T13:22:46Z</time>
      </trkpt>
      <trkpt lat="48.13243" lon="6.84074">
        <ele>652.41</ele>
        <time>2016-05-29T13:23:41Z</time>
      </trkpt>
      <trkpt lat="48.13258" lon="6.8408">
        <ele>651.41</ele>
        <time>2016-05-29T13:24:20Z</time>
      </trkpt>
      <trkpt lat="48.13277" lon="6.84075">
        <ele>647.31</ele>
        <time>2016-05-29T13:25:00Z</time>
      </trkpt>
      <trkpt lat="48.13304" lon="6.84059">
        <ele>644.72</ele>
        <time>2016-05-29T13:25:29Z</time>
      </trkpt>
      <trkpt lat="48.13333" lon="6.84042">
        <ele>642.13</ele>
        <time>2016-05-29T13:25:57Z</time>
      </trkpt>
      <trkpt lat="48.13369" lon="6.84018">
        <ele>640.25</ele>
        <time>2016-05-29T13:26:25Z</time>
      </trkpt>
      <trkpt lat="48.13401" lon="6.84">
        <ele>638.68</ele>
        <time>2016-05-29T13:26:50Z</time>
      </trkpt>
      <trkpt lat="48.13433" lon="6.83983">
        <ele>636.7</ele>
        <time>2016-05-29T13:27:18Z</time>
      </trkpt>
      <trkpt lat="48.13462" lon="6.83971">
        <ele>634.83</ele>
        <time>2016-05-29T13:27:44Z</time>
      </trkpt>
      <trkpt lat="48.13504" lon="6.83955">
        <ele>633.23</ele>
        <time>2016-05-29T13:28:07Z</time>
      </trkpt>
      <trkpt lat="48.1353" lon="6.83947">
        <ele>631.36</ele>
        <time>2016-05-29T13:28:28Z</time>
      </trkpt>
      <trkpt lat="48.13557" lon="6.83938">
        <ele>628.71</ele>
        <time>2016-05-29T13:28:49Z</time>
      </trkpt>
      <trkpt lat="48.1358" lon="6.83931">
        <ele>627.66</ele>
        <time>2016-05-29T13:29:07Z</time>
      </trkpt>
      <trkpt lat="48.13598" lon="6.83927">
        <ele>626.39</ele>
        <time>2016-05-29T13:29:24Z</time>
      </trkpt>
      <trkpt lat="48.13618" lon="6.83929">
        <ele>624.08</ele>
        <time>2016-05-29T13:29:43Z</time>
      </trkpt>
      <trkpt lat="48.13638" lon="6.83933">
        <ele>621.95</ele>
        <time>2016-05-29T13:30:01Z</time>
      </trkpt>
      <trkpt lat="48.13661" lon="6.83937">
        <ele>619.95</ele>
        <time>2016-05-29T13:30:18Z</time>
      </trkpt>
      <trkpt lat="48.13687" lon="6.83932">
        <ele>618.77</ele>
        <time>2016-05-29T13:30:32Z</time>
      </trkpt>
      <trkpt lat="48.13701" lon="6.83945">
        <ele>617.79</ele>
        <time>2016-05-29T13:30:47Z</time>
      </trkpt>
      <trkpt lat="48.13714" lon="6.83963">
        <ele>617.56</ele>
        <time>2016-05-29T13:31:02Z</time>
      </trkpt>
      <trkpt lat="48.1373" lon="6.83977">
        <ele>616.66</ele>
        <time>2016-05-29T13:31:17Z</time>
      </trkpt>
      <trkpt lat="48.13749" lon="6.83991">
        <ele>616.4</ele>
        <time>2016-05-29T13:31:32Z</time>
      </trkpt>
      <trkpt lat="48.13766" lon="6.84007">
        <ele>616.01</ele>
        <time>2016-05-29T13:31:47Z</time>
      </trkpt>
      <trkpt lat="48.13781" lon="6.84027">
        <ele>615.87</ele>
        <time>2016-05-29T13:32:02Z</time>
      </trkpt>
      <trkpt lat="48.13793" lon="6.84049">
        <ele>616.4</ele>
        <time>2016-05-29T13:32:18Z</time>
      </trkpt>
      <trkpt lat="48.13803" lon="6.84072">
        <ele>616.45</ele>
        <time>2016-05-29T13:32:33Z</time>
      </trkpt>
      <trkpt lat="48.13813" lon="6.84094">
        <ele>615.85</ele>
        <time>2016-05-29T13:32:48Z</time>
      </trkpt>
      <trkpt lat="48.13829" lon="6.84109">
        <ele>613.64</ele>
        <time>2016-05-29T13:33:04Z</time>
      </trkpt>
      <trkpt lat="48.13844" lon="6.84112">
        <ele>611.89</ele>
        <time>2016-05-29T13:34:59Z</time>
      </trkpt>
      <trkpt lat="48.13833" lon="6.84127">
        <ele>611.36</ele>
        <time>2016-05-29T13:36:52Z</time>
      </trkpt>
      <trkpt lat="48.1382" lon="6.84147">
        <ele>610.84</ele>
        <time>2016-05-29T13:37:08Z</time>
      </trkpt>
      <trkpt lat="48.13808" lon="6.84167">
        <ele>610.81</ele>
        <time>2016-05-29T13:37:23Z</time>
      </trkpt>
      <trkpt lat="48.13795" lon="6.84186">
        <ele>611.39</ele>
        <time>2016-05-29T13:37:38Z</time>
      </trkpt>
      <trkpt lat="48.13779" lon="6.84205">
        <ele>611.21</ele>
        <time>2016-05-29T13:37:53Z</time>
      </trkpt>
      <trkpt lat="48.13764" lon="6.84222">
        <ele>611.27</ele>
        <time>2016-05-29T13:38:08Z</time>
      </trkpt>
      <trkpt lat="48.1375" lon="6.84239">
        <ele>612.27</ele>
        <time>2016-05-29T13:38:23Z</time>
      </trkpt>
      <trkpt lat="48.13736" lon="6.84257">
        <ele>613.28</ele>
        <time>2016-05-29T13:38:37Z</time>
      </trkpt>
      <trkpt lat="48.13726" lon="6.84279">
        <ele>612.99</ele>
        <time>2016-05-29T13:38:52Z</time>
      </trkpt>
      <trkpt lat="48.13712" lon="6.84298">
        <ele>612.47</ele>
        <time>2016-05-29T13:39:07Z</time>
      </trkpt>
      <trkpt lat="48.13698" lon="6.84314">
        <ele>613.23</ele>
        <time>2016-05-29T13:39:23Z</time>
      </trkpt>
      <trkpt lat="48.13681" lon="6.84324">
        <ele>612.44</ele>
        <time>2016-05-29T13:39:38Z</time>
      </trkpt>
      <trkpt lat="48.13664" lon="6.84334">
        <ele>612.38</ele>
        <time>2016-05-29T13:39:54Z</time>
      </trkpt>
      <trkpt lat="48.13651" lon="6.84354">
        <ele>610.15</ele>
        <time>2016-05-29T13:40:11Z</time>
      </trkpt>
      <trkpt lat="48.13648" lon="6.84381">
        <ele>607.65</ele>
        <time>2016-05-29T13:40:34Z</time>
      </trkpt>
      <trkpt lat="48.13661" lon="6.84409">
        <ele>607.19</ele>
        <time>2016-05-29T13:41:03Z</time>
      </trkpt>
      <trkpt lat="48.13661" lon="6.84439">
        <ele>607.39</ele>
        <time>2016-05-29T13:41:24Z</time>
      </trkpt>
      <trkpt lat="48.1366" lon="6.84469">
        <ele>607.67</ele>
        <time>2016-05-29T13:41:40Z</time>
      </trkpt>
      <trkpt lat="48.13655" lon="6.84498">
        <ele>609.09</ele>
        <time>2016-05-29T13:41:56Z</time>
      </trkpt>
      <trkpt lat="48.13656" lon="6.84521">
        <ele>611.73</ele>
        <time>2016-05-29T13:42:15Z</time>
      </trkpt>
      <trkpt lat="48.13671" lon="6.84544">
        <ele>615.46</ele>
        <time>2016-05-29T13:42:42Z</time>
      </trkpt>
      <trkpt lat="48.13683" lon="6.84549">
        <ele>617.6</ele>
        <time>2016-05-29T13:43:58Z</time>
      </trkpt>
      <trkpt lat="48.13703" lon="6.84552">
        <ele>619.25</ele>
        <time>2016-05-29T13:44:22Z</time>
      </trkpt>
      <trkpt lat="48.13727" lon="6.8456">
        <ele>621.26</ele>
        <time>2016-05-29T13:44:48Z</time>
      </trkpt>
      <trkpt lat="48.1375" lon="6.84562">
        <ele>623.08</ele>
        <time>2016-05-29T13:45:08Z</time>
      </trkpt>
      <trkpt lat="48.13777" lon="6.84561">
        <ele>623.55</ele>
        <time>2016-05-29T13:45:31Z</time>
      </trkpt>
      <trkpt lat="48.13803" lon="6.84556">
        <ele>624.38</ele>
        <time>2016-05-29T13:45:52Z</time>
      </trkpt>
      <trkpt lat="48.13825" lon="6.84557">
        <ele>624.89</ele>
        <time>2016-05-29T13:46:13Z</time>
      </trkpt>
      <trkpt lat="48.13851" lon="6.84564">
        <ele>625.93</ele>
        <time>2016-05-29T13:46:31Z</time>
      </trkpt>
      <trkpt lat="48.1387" lon="6.84578">
        <ele>626.82</ele>
        <time>2016-05-29T13:47:01Z</time>
      </trkpt>
      <trkpt lat="48.13881" lon="6.84586">
        <ele>626.02</ele>
        <time>2016-05-29T13:47:32Z</time>
      </trkpt>
      <trkpt lat="48.13897" lon="6.84603">
        <ele>628.62</ele>
        <time>2016-05-29T13:47:50Z</time>
      </trkpt>
      <trkpt lat="48.13909" lon="6.84622">
        <ele>630.53</ele>
        <time>2016-05-29T13:48:06Z</time>
      </trkpt>
      <trkpt lat="48.13925" lon="6.84644">
        <ele>631.59</ele>
        <time>2016-05-29T13:48:24Z</time>
      </trkpt>
      <trkpt lat="48.13936" lon="6.84668">
        <ele>634.15</ele>
        <time>2016-05-29T13:48:40Z</time>
      </trkpt>
      <trkpt lat="48.13946" lon="6.8469">
        <ele>633.69</ele>
        <time>2016-05-29T13:48:56Z</time>
      </trkpt>
      <trkpt lat="48.13952" lon="6.8472">
        <ele>634.88</ele>
        <time>2016-05-29T13:49:12Z</time>
      </trkpt>
      <trkpt lat="48.13949" lon="6.84744">
        <ele>637.23</ele>
        <time>2016-05-29T13:49:28Z</time>
      </trkpt>
      <trkpt lat="48.13947" lon="6.8477">
        <ele>639.61</ele>
        <time>2016-05-29T13:49:43Z</time>
      </trkpt>
      <trkpt lat="48.13948" lon="6.848">
        <ele>641.05</ele>
        <time>2016-05-29T13:49:59Z</time>
      </trkpt>
      <trkpt lat="48.13949" lon="6.84829">
        <ele>641.63</ele>
        <time>2016-05-29T13:50:14Z</time>
      </trkpt>
      <trkpt lat="48.13955" lon="6.84857">
        <ele>641.87</ele>
        <time>2016-05-29T13:50:34Z</time>
      </trkpt>
      <trkpt lat="48.1396" lon="6.84886">
        <ele>641.86</ele>
        <time>2016-05-29T13:50:52Z</time>
      </trkpt>
      <trkpt lat="48.13966" lon="6.84917">
        <ele>642.11</ele>
        <time>2016-05-29T13:51:10Z</time>
      </trkpt>
      <trkpt lat="48.13972" lon="6.84951">
        <ele>642.29</ele>
        <time>2016-05-29T13:51:29Z</time>
      </trkpt>
      <trkpt lat="48.13976" lon="6.84984">
        <ele>644.59</ele>
        <time>2016-05-29T13:51:46Z</time>
      </trkpt>
      <trkpt lat="48.13977" lon="6.85018">
        <ele>646.64</ele>
        <time>2016-05-29T13:52:04Z</time>
      </trkpt>
      <trkpt lat="48.13967" lon="6.85034">
        <ele>649.89</ele>
        <time>2016-05-29T13:52:32Z</time>
      </trkpt>
      <trkpt lat="48.13955" lon="6.85056">
        <ele>652.97</ele>
        <time>2016-05-29T13:52:54Z</time>
      </trkpt>
      <trkpt lat="48.1394" lon="6.85077">
        <ele>656.1</ele>
        <time>2016-05-29T13:53:13Z</time>
      </trkpt>
      <trkpt lat="48.13925" lon="6.85079">
        <ele>658.68</ele>
        <time>2016-05-29T13:53:40Z</time>
      </trkpt>
      <trkpt lat="48.13908" lon="6.85089">
        <ele>659.96</ele>
        <time>2016-05-29T13:54:06Z</time>
      </trkpt>
      <trkpt lat="48.13906" lon="6.85086">
        <ele>660.69</ele>
        <time>2016-05-29T13:54:48Z</time>
      </trkpt>
      <trkpt lat="48.13917" lon="6.85095">
        <ele>660.02</ele>
        <time>2016-05-29T13:55:25Z</time>
      </trkpt>
      <trkpt lat="48.13908" lon="6.85112">
        <ele>659.43</ele>
        <time>2016-05-29T13:56:09Z</time>
      </trkpt>
      <trkpt lat="48.139" lon="6.85131">
        <ele>661.8</ele>
        <time>2016-05-29T13:56:40Z</time>
      </trkpt>
      <trkpt lat="48.13888" lon="6.85155">
        <ele>663.66</ele>
        <time>2016-05-29T13:57:01Z</time>
      </trkpt>
      <trkpt lat="48.13867" lon="6.85175">
        <ele>665.4</ele>
        <time>2016-05-29T13:57:19Z</time>
      </trkpt>
      <trkpt lat="48.13857" lon="6.852">
        <ele>665.52</ele>
        <time>2016-05-29T13:57:35Z</time>
      </trkpt>
      <trkpt lat="48.13848" lon="6.85224">
        <ele>667.46</ele>
        <time>2016-05-29T13:57:52Z</time>
      </trkpt>
      <trkpt lat="48.13845" lon="6.85253">
        <ele>668.58</ele>
        <time>2016-05-29T13:58:12Z</time>
      </trkpt>
      <trkpt lat="48.13844" lon="6.85292">
        <ele>668.62</ele>
        <time>2016-05-29T13:58:34Z</time>
      </trkpt>
      <trkpt lat="48.13844" lon="6.85331">
        <ele>668.72</ele>
        <time>2016-05-29T13:58:54Z</time>
      </trkpt>
      <trkpt lat="48.13855" lon="6.85362">
        <ele>669.83</ele>
        <time>2016-05-29T13:59:12Z</time>
      </trkpt>
      <trkpt lat="48.13864" lon="6.85402">
        <ele>672.71</ele>
        <time>2016-05-29T13:59:32Z</time>
      </trkpt>
      <trkpt lat="48.13873" lon="6.85438">
        <ele>674.97</ele>
        <time>2016-05-29T13:59:49Z</time>
      </trkpt>
      <trkpt lat="48.13871" lon="6.85472">
        <ele>677.5</ele>
        <time>2016-05-29T14:00:06Z</time>
      </trkpt>
      <trkpt lat="48.13872" lon="6.85503">
        <ele>680.9</ele>
        <time>2016-05-29T14:00:25Z</time>
      </trkpt>
      <trkpt lat="48.13875" lon="6.85533">
        <ele>683.26</ele>
        <time>2016-05-29T14:00:42Z</time>
      </trkpt>
      <trkpt lat="48.13879" lon="6.85571">
        <ele>686.35</ele>
        <time>2016-05-29T14:01:01Z</time>
      </trkpt>
      <trkpt lat="48.13873" lon="6.856">
        <ele>690.23</ele>
        <time>2016-05-29T14:01:20Z</time>
      </trkpt>
      <trkpt lat="48.1387" lon="6.85629">
        <ele>694.04</ele>
        <time>2016-05-29T14:01:43Z</time>
      </trkpt>
      <trkpt lat="48.13864" lon="6.85659">
        <ele>698.02</ele>
        <time>2016-05-29T14:02:12Z</time>
      </trkpt>
      <trkpt lat="48.13859" lon="6.85669">
        <ele>698.46</ele>
        <time>2016-05-29T14:03:04Z</time>
      </trkpt>
      <trkpt lat="48.1386" lon="6.85667">
        <ele>698.4</ele>
        <time>2016-05-29T14:04:08Z</time>
      </trkpt>
      <trkpt lat="48.13852" lon="6.85696">
        <ele>697.62</ele>
        <time>2016-05-29T14:05:03Z</time>
      </trkpt>
      <trkpt lat="48.13846" lon="6.85729">
        <ele>697.96</ele>
        <time>2016-05-29T14:05:25Z</time>
      </trkpt>
      <trkpt lat="48.13837" lon="6.85756">
        <ele>698.25</ele>
        <time>2016-05-29T14:05:54Z</time>
      </trkpt>
      <trkpt lat="48.13829" lon="6.85783">
        <ele>697.92</ele>
        <time>2016-05-29T14:06:16Z</time>
      </trkpt>
      <trkpt lat="48.13812" lon="6.85811">
        <ele>698.87</ele>
        <time>2016-05-29T14:06:42Z</time>
      </trkpt>
      <trkpt lat="48.13798" lon="6.85843">
        <ele>698.6</ele>
        <time>2016-05-29T14:07:02Z</time>
      </trkpt>
      <trkpt lat="48.13778" lon="6.85888">
        <ele>698.23</ele>
        <time>2016-05-29T14:07:24Z</time>
      </trkpt>
      <trkpt lat="48.13758" lon="6.85908">
        <ele>699.14</ele>
        <time>2016-05-29T14:07:43Z</time>
      </trkpt>
      <trkpt lat="48.13736" lon="6.85927">
        <ele>698.82</ele>
        <time>2016-05-29T14:08:01Z</time>
      </trkpt>
      <trkpt lat="48.1372" lon="6.85944">
        <ele>699.68</ele>
        <time>2016-05-29T14:08:21Z</time>
      </trkpt>
      <trkpt lat="48.137" lon="6.85968">
        <ele>699.67</ele>
        <time>2016-05-29T14:08:42Z</time>
      </trkpt>
      <trkpt lat="48.13682" lon="6.85991">
        <ele>699.29</ele>
        <time>2016-05-29T14:09:02Z</time>
      </trkpt>
      <trkpt lat="48.13665" lon="6.8603">
        <ele>699.05</ele>
        <time>2016-05-29T14:09:32Z</time>
      </trkpt>
      <trkpt lat="48.13638" lon="6.86063">
        <ele>699.57</ele>
        <time>2016-05-29T14:09:55Z</time>
      </trkpt>
      <trkpt lat="48.13618" lon="6.86092">
        <ele>697.87</ele>
        <time>2016-05-29T14:10:20Z</time>
      </trkpt>
      <trkpt lat="48.13601" lon="6.86127">
        <ele>697.52</ele>
        <time>2016-05-29T14:10:42Z</time>
      </trkpt>
      <trkpt lat="48.1358" lon="6.86149">
        <ele>699.05</ele>
        <time>2016-05-29T14:11:02Z</time>
      </trkpt>
      <trkpt lat="48.13553" lon="6.86166">
        <ele>698.7</ele>
        <time>2016-05-29T14:11:29Z</time>
      </trkpt>
      <trkpt lat="48.13525" lon="6.86178">
        <ele>695.86</ele>
        <time>2016-05-29T14:12:02Z</time>
      </trkpt>
      <trkpt lat="48.13531" lon="6.86193">
        <ele>695.2</ele>
        <time>2016-05-29T14:12:52Z</time>
      </trkpt>
      <trkpt lat="48.13544" lon="6.86214">
        <ele>692.23</ele>
        <time>2016-05-29T14:13:25Z</time>
      </trkpt>
      <trkpt lat="48.13564" lon="6.86239">
        <ele>687.59</ele>
        <time>2016-05-29T14:13:51Z</time>
      </trkpt>
      <trkpt lat="48.13569" lon="6.86272">
        <ele>684.6</ele>
        <time>2016-05-29T14:14:10Z</time>
      </trkpt>
      <trkpt lat="48.1357" lon="6.86306">
        <ele>681.61</ele>
        <time>2016-05-29T14:14:26Z</time>
      </trkpt>
      <trkpt lat="48.13563" lon="6.86335">
        <ele>678.48</ele>
        <time>2016-05-29T14:14:49Z</time>
      </trkpt>
      <trkpt lat="48.13556" lon="6.86373">
        <ele>675.16</ele>
        <time>2016-05-29T14:15:10Z</time>
      </trkpt>
      <trkpt lat="48.13543" lon="6.86409">
        <ele>671.36</ele>
        <time>2016-05-29T14:15:28Z</time>
      </trkpt>
      <trkpt lat="48.13538" lon="6.86438">
        <ele>668.6</ele>
        <time>2016-05-29T14:15:42Z</time>
      </trkpt>
      <trkpt lat="48.13542" lon="6.86455">
        <ele>667.33</ele>
        <time>2016-05-29T14:15:57Z</time>
      </trkpt>
      <trkpt lat="48.13558" lon="6.86473">
        <ele>667.17</ele>
        <time>2016-05-29T14:16:11Z</time>
      </trkpt>
      <trkpt lat="48.13573" lon="6.86486">
        <ele>667.09</ele>
        <time>2016-05-29T14:16:26Z</time>
      </trkpt>
      <trkpt lat="48.13583" lon="6.86502">
        <ele>665.49</ele>
        <time>2016-05-29T14:16:53Z</time>
      </trkpt>
      <trkpt lat="48.13569" lon="6.86495">
        <ele>664.68</ele>
        <time>2016-05-29T14:17:38Z</time>
      </trkpt>
      <trkpt lat="48.13583" lon="6.86526">
        <ele>665.91</ele>
        <time>2016-05-29T14:18:02Z</time>
      </trkpt>
      <trkpt lat="48.13601" lon="6.86544">
        <ele>665.3</ele>
        <time>2016-05-29T14:18:19Z</time>
      </trkpt>
      <trkpt lat="48.13625" lon="6.86551">
        <ele>667.29</ele>
        <time>2016-05-29T14:18:41Z</time>
      </trkpt>
      <trkpt lat="48.13648" lon="6.8655">
        <ele>667.74</ele>
        <time>2016-05-29T14:18:58Z</time>
      </trkpt>
      <trkpt lat="48.13677" lon="6.86537">
        <ele>668.08</ele>
        <time>2016-05-29T14:19:20Z</time>
      </trkpt>
      <trkpt lat="48.13704" lon="6.86517">
        <ele>668.23</ele>
        <time>2016-05-29T14:19:45Z</time>
      </trkpt>
      <trkpt lat="48.13731" lon="6.86498">
        <ele>668.62</ele>
        <time>2016-05-29T14:20:06Z</time>
      </trkpt>
      <trkpt lat="48.13759" lon="6.86495">
        <ele>667.99</ele>
        <time>2016-05-29T14:20:26Z</time>
      </trkpt>
      <trkpt lat="48.13779" lon="6.86503">
        <ele>666.87</ele>
        <time>2016-05-29T14:20:40Z</time>
      </trkpt>
      <trkpt lat="48.13798" lon="6.86514">
        <ele>666.26</ele>
        <time>2016-05-29T14:20:54Z</time>
      </trkpt>
      <trkpt lat="48.13816" lon="6.86506">
        <ele>665.91</ele>
        <time>2016-05-29T14:21:22Z</time>
      </trkpt>
      <trkpt lat="48.13853" lon="6.86474">
        <ele>666.67</ele>
        <time>2016-05-29T14:21:49Z</time>
      </trkpt>
      <trkpt lat="48.13877" lon="6.86457">
        <ele>668.37</ele>
        <time>2016-05-29T14:22:21Z</time>
      </trkpt>
      <trkpt lat="48.13911" lon="6.86424">
        <ele>668.34</ele>
        <time>2016-05-29T14:22:44Z</time>
      </trkpt>
      <trkpt lat="48.1394" lon="6.86409">
        <ele>669.49</ele>
        <time>2016-05-29T14:23:05Z</time>
      </trkpt>
      <trkpt lat="48.13969" lon="6.86384">
        <ele>669.89</ele>
        <time>2016-05-29T14:23:30Z</time>
      </trkpt>
      <trkpt lat="48.13987" lon="6.8637">
        <ele>669.77</ele>
        <time>2016-05-29T14:23:48Z</time>
      </trkpt>
      <trkpt lat="48.14011" lon="6.86356">
        <ele>670.66</ele>
        <time>2016-05-29T14:24:07Z</time>
      </trkpt>
      <trkpt lat="48.14035" lon="6.86346">
        <ele>671.13</ele>
        <time>2016-05-29T14:24:26Z</time>
      </trkpt>
      <trkpt lat="48.14075" lon="6.86333">
        <ele>671.95</ele>
        <time>2016-05-29T14:24:56Z</time>
      </trkpt>
      <trkpt lat="48.14111" lon="6.86326">
        <ele>673.14</ele>
        <time>2016-05-29T14:25:21Z</time>
      </trkpt>
      <trkpt lat="48.14142" lon="6.86318">
        <ele>674.62</ele>
        <time>2016-05-29T14:25:42Z</time>
      </trkpt>
      <trkpt lat="48.14161" lon="6.86314">
        <ele>677.04</ele>
        <time>2016-05-29T14:26:01Z</time>
      </trkpt>
      <trkpt lat="48.14179" lon="6.86304">
        <ele>678.89</ele>
        <time>2016-05-29T14:26:23Z</time>
      </trkpt>
      <trkpt lat="48.14211" lon="6.86302">
        <ele>680.96</ele>
        <time>2016-05-29T14:26:47Z</time>
      </trkpt>
      <trkpt lat="48.14246" lon="6.86311">
        <ele>681.79</ele>
        <time>2016-05-29T14:27:06Z</time>
      </trkpt>
      <trkpt lat="48.14267" lon="6.86325">
        <ele>682.44</ele>
        <time>2016-05-29T14:27:23Z</time>
      </trkpt>
      <trkpt lat="48.14291" lon="6.86338">
        <ele>682.65</ele>
        <time>2016-05-29T14:27:42Z</time>
      </trkpt>
      <trkpt lat="48.14314" lon="6.8635">
        <ele>683.97</ele>
        <time>2016-05-29T14:27:59Z</time>
      </trkpt>
      <trkpt lat="48.14332" lon="6.86365">
        <ele>683.79</ele>
        <time>2016-05-29T14:28:13Z</time>
      </trkpt>
      <trkpt lat="48.14346" lon="6.86385">
        <ele>683.97</ele>
        <time>2016-05-29T14:28:27Z</time>
      </trkpt>
      <trkpt lat="48.14358" lon="6.86407">
        <ele>684.26</ele>
        <time>2016-05-29T14:28:45Z</time>
      </trkpt>
      <trkpt lat="48.14374" lon="6.86421">
        <ele>684.87</ele>
        <time>2016-05-29T14:29:10Z</time>
      </trkpt>
      <trkpt lat="48.1439" lon="6.86437">
        <ele>684.73</ele>
        <time>2016-05-29T14:29:26Z</time>
      </trkpt>
      <trkpt lat="48.14407" lon="6.86446">
        <ele>685.12</ele>
        <time>2016-05-29T14:29:42Z</time>
      </trkpt>
      <trkpt lat="48.14426" lon="6.86453">
        <ele>684.93</ele>
        <time>2016-05-29T14:30:04Z</time>
      </trkpt>
      <trkpt lat="48.14447" lon="6.86462">
        <ele>684.91</ele>
        <time>2016-05-29T14:30:21Z</time>
      </trkpt>
      <trkpt lat="48.14467" lon="6.86472">
        <ele>685.14</ele>
        <time>2016-05-29T14:30:36Z</time>
      </trkpt>
      <trkpt lat="48.14485" lon="6.86481">
        <ele>684.48</ele>
        <time>2016-05-29T14:30:52Z</time>
      </trkpt>
      <trkpt lat="48.14505" lon="6.86488">
        <ele>684.85</ele>
        <time>2016-05-29T14:31:07Z</time>
      </trkpt>
      <trkpt lat="48.14523" lon="6.86492">
        <ele>684.9</ele>
        <time>2016-05-29T14:31:22Z</time>
      </trkpt>
      <trkpt lat="48.14546" lon="6.86491">
        <ele>684.68</ele>
        <time>2016-05-29T14:31:36Z</time>
      </trkpt>
      <trkpt lat="48.14564" lon="6.86494">
        <ele>684.71</ele>
        <time>2016-05-29T14:31:49Z</time>
      </trkpt>
      <trkpt lat="48.14578" lon="6.86492">
        <ele>685.26</ele>
        <time>2016-05-29T14:32:02Z</time>
      </trkpt>
      <trkpt lat="48.14598" lon="6.8649">
        <ele>684.47</ele>
        <time>2016-05-29T14:32:16Z</time>
      </trkpt>
      <trkpt lat="48.14616" lon="6.86488">
        <ele>685.1</ele>
        <time>2016-05-29T14:32:30Z</time>
      </trkpt>
      <trkpt lat="48.14633" lon="6.86482">
        <ele>685.28</ele>
        <time>2016-05-29T14:32:43Z</time>
      </trkpt>
      <trkpt lat="48.14652" lon="6.86472">
        <ele>684.62</ele>
        <time>2016-05-29T14:32:56Z</time>
      </trkpt>
      <trkpt lat="48.14672" lon="6.86465">
        <ele>684.9</ele>
        <time>2016-05-29T14:33:10Z</time>
      </trkpt>
      <trkpt lat="48.14691" lon="6.86455">
        <ele>685.02</ele>
        <time>2016-05-29T14:33:24Z</time>
      </trkpt>
      <trkpt lat="48.14709" lon="6.86449">
        <ele>685.84</ele>
        <time>2016-05-29T14:33:37Z</time>
      </trkpt>
      <trkpt lat="48.14729" lon="6.86438">
        <ele>686.12</ele>
        <time>2016-05-29T14:33:54Z</time>
      </trkpt>
      <trkpt lat="48.14747" lon="6.86434">
        <ele>687.13</ele>
        <time>2016-05-29T14:34:08Z</time>
      </trkpt>
      <trkpt lat="48.14765" lon="6.86434">
        <ele>687.18</ele>
        <time>2016-05-29T14:34:22Z</time>
      </trkpt>
      <trkpt lat="48.14787" lon="6.86433">
        <ele>688.33</ele>
        <time>2016-05-29T14:34:38Z</time>
      </trkpt>
      <trkpt lat="48.14805" lon="6.86436">
        <ele>688.67</ele>
        <time>2016-05-29T14:34:53Z</time>
      </trkpt>
      <trkpt lat="48.14824" lon="6.86438">
        <ele>688.48</ele>
        <time>2016-05-29T14:35:08Z</time>
      </trkpt>
    </trkseg>
  </trk>
</gpx>